Home > Products > Valid Products > TAF

000
FTUS46 KPQR 201132
TAFTTD
TAF
KTTD 201132Z 2012/2112 10004KT P6SM -RA SCT025 BKN040 OVC060
     FM201600 19006KT P6SM VCSH SCT025 BKN060
     FM202000 19009KT P6SM -SHRA SCT025 BKN060
     FM210600 13004KT P6SM VCSH BKN035 BKN050=



000
FTUS46 KPQR 201132
TAFAST
TAF
KAST 201132Z 2012/2112 19010KT P6SM -RA SCT015 BKN035 OVC060
      TEMPO 2012/2016 4SM -RADZ BR BKN015 OVC035
     FM201600 20009KT P6SM -SHRA SCT025 BKN060
     FM202000 20010KT P6SM -SHRA BKN035 BKN060=



000
FTUS46 KPQR 201132
TAFPDX
TAF
KPDX 201132Z 2012/2112 16005KT P6SM -RA SCT025 BKN040 OVC060
     FM201600 19006KT P6SM VCSH SCT025 BKN060
     FM202000 18009KT P6SM -SHRA SCT025 BKN060
     FM210600 16004KT P6SM -SHRA BKN035 OVC050=



000
FTUS46 KPQR 201132
TAFONP
TAF
KONP 201132Z 2012/2112 19010KT P6SM SCT015 BKN035 OVC060
      TEMPO 2012/2016 5SM -RADZ BR BKN015 OVC035
     FM201600 20008KT P6SM -SHRA SCT025 BKN060
     FM202000 20010KT P6SM -SHRA BKN035 BKN060=



000
FTUS46 KPQR 201132
TAFHIO
TAF
KHIO 201132Z 2012/2112 16005KT P6SM -RA SCT025 BKN040 OVC060
     FM201600 19006KT P6SM -SHRA SCT025 BKN060
     FM210500 VRB03KT P6SM -SHRA BKN035 BKN050=



000
FTUS46 KPQR 201132
TAFHIO
TAF
KHIO 201132Z 2012/2112 16005KT P6SM -RA SCT025 BKN040 OVC060
     FM201600 19006KT P6SM -SHRA SCT025 BKN060
     FM210500 VRB03KT P6SM -SHRA BKN035 BKN050=



000
FTUS46 KPQR 201132
TAFSLE
TAF
KSLE 201132Z 2012/2112 20006KT P6SM -RA SCT025 BKN040 OVC060
     FM201600 20008KT P6SM -SHRA SCT025 BKN060
     FM210500 VRB03KT P6SM -SHRA BKN035 BKN050=



000
FTUS46 KPQR 201132
TAFEUG
TAF
KEUG 201132Z 2012/2112 20007KT P6SM -RA SCT025 BKN040 OVC060
     FM201600 20008KT P6SM -SHRA SCT025 BKN060
     FM210500 16004KT P6SM -SHRA BKN035 BKN050=



000
FTUS46 KPQR 201132
TAFEUG
TAF
KEUG 201132Z 2012/2112 20007KT P6SM -RA SCT025 BKN040 OVC060
     FM201600 20008KT P6SM -SHRA SCT025 BKN060
     FM210500 16004KT P6SM -SHRA BKN035 BKN050=



000
FTUS46 KPQR 201132
TAFPDX
TAF
KPDX 201132Z 2012/2112 16005KT P6SM -RA SCT025 BKN040 OVC060
     FM201600 19006KT P6SM VCSH SCT025 BKN060
     FM202000 18009KT P6SM -SHRA SCT025 BKN060
     FM210600 16004KT P6SM -SHRA BKN035 OVC050=



000
FTUS46 KPQR 201132
TAFAST
TAF
KAST 201132Z 2012/2112 19010KT P6SM -RA SCT015 BKN035 OVC060
      TEMPO 2012/2016 4SM -RADZ BR BKN015 OVC035
     FM201600 20009KT P6SM -SHRA SCT025 BKN060
     FM202000 20010KT P6SM -SHRA BKN035 BKN060=



000
FTUS46 KPQR 201132
TAFONP
TAF
KONP 201132Z 2012/2112 19010KT P6SM SCT015 BKN035 OVC060
      TEMPO 2012/2016 5SM -RADZ BR BKN015 OVC035
     FM201600 20008KT P6SM -SHRA SCT025 BKN060
     FM202000 20010KT P6SM -SHRA BKN035 BKN060=



000
FTUS46 KPQR 201132
TAFSLE
TAF
KSLE 201132Z 2012/2112 20006KT P6SM -RA SCT025 BKN040 OVC060
     FM201600 20008KT P6SM -SHRA SCT025 BKN060
     FM210500 VRB03KT P6SM -SHRA BKN035 BKN050=



000
FTUS46 KPQR 201132
TAFTTD
TAF
KTTD 201132Z 2012/2112 10004KT P6SM -RA SCT025 BKN040 OVC060
     FM201600 19006KT P6SM VCSH SCT025 BKN060
     FM202000 19009KT P6SM -SHRA SCT025 BKN060
     FM210600 13004KT P6SM VCSH BKN035 BKN050=



000
FTUS46 KPQR 200928 AAA
TAFONP
TAF AMD
KONP 200928Z 2009/2106 20010KT P6SM -RA SCT005 BKN015 OVC045
     FM201200 22007KT P6SM VCSH SCT012 BKN025 BKN045
     FM201600 20007KT P6SM BKN025 BKN045
      TEMPO 2016/2020 -SHRA
     FM202000 20010KT P6SM -SHRA BKN035 BKN050=



000
FTUS46 KPQR 200925 AAA
TAFSLE
TAF AMD
KSLE 200925Z 2009/2106 16005KT P6SM -RA SCT025 BKN045 OVC070
     FM201200 18007KT 4SM -RA BR SCT015 BKN025 OVC045
     FM201700 20010KT P6SM VCSH SCT025 BKN050
     FM202000 19006KT P6SM -SHRA SCT025 BKN050=



000
FTUS46 KPQR 200925 AAA
TAFSLE
TAF AMD
KSLE 200925Z 2009/2106 16005KT P6SM -RA SCT025 BKN045 OVC070
     FM201200 18007KT 4SM -RA BR SCT015 BKN025 OVC045
     FM201700 20010KT P6SM VCSH SCT025 BKN050
     FM202000 19006KT P6SM -SHRA SCT025 BKN050=



000
FTUS46 KPQR 200925 AAA
TAFEUG
TAF AMD
KEUG 200925Z 2009/2106 20006KT P6SM -RA FEW025 BKN045 OVC070
     FM201200 19007KT 4SM -RA BR SCT015 BKN025 OVC045
     FM201700 20010KT P6SM VCSH SCT025 BKN050
     FM202000 19007KT P6SM -SHRA SCT025 BKN050=



000
FTUS46 KPQR 200925 AAA
TAFEUG
TAF AMD
KEUG 200925Z 2009/2106 20006KT P6SM -RA FEW025 BKN045 OVC070
     FM201200 19007KT 4SM -RA BR SCT015 BKN025 OVC045
     FM201700 20010KT P6SM VCSH SCT025 BKN050
     FM202000 19007KT P6SM -SHRA SCT025 BKN050=



000
FTUS46 KPQR 200923 AAA
TAFTTD
TAF AMD
KTTD 200923Z 2009/2106 12005KT P6SM -RA SCT025 BKN045 OVC060
     FM201200 VRB03KT 4SM -RA BR SCT015 BKN025 OVC040
     FM201700 19007KT P6SM VCSH SCT025 BKN050
     FM202000 18006KT P6SM -SHRA SCT025 BKN050=



000
FTUS46 KPQR 200922 AAA
TAFHIO
TAF AMD
KHIO 200922Z 2009/2106 18005KT P6SM -RA SCT025 BKN045 OVC070
     FM201200 18004KT 4SM -RA BR SCT015 BKN025 OVC040
     FM201700 19007KT P6SM VCSH SCT025 BKN050
     FM202000 18006KT P6SM -SHRA SCT025 BKN050=



000
FTUS46 KPQR 200922 AAA
TAFHIO
TAF AMD
KHIO 200922Z 2009/2106 18005KT P6SM -RA SCT025 BKN045 OVC070
     FM201200 18004KT 4SM -RA BR SCT015 BKN025 OVC040
     FM201700 19007KT P6SM VCSH SCT025 BKN050
     FM202000 18006KT P6SM -SHRA SCT025 BKN050=



000
FTUS46 KPQR 200909 AAA
TAFPDX
TAF AMD
KPDX 200909Z 2009/2106 13005KT P6SM -RA SCT025 OVC045
     FM201200 17004KT 4SM -RA BR SCT015 BKN025 OVC040
     FM201700 19008KT P6SM VCSH SCT025 BKN050
     FM202000 18006KT P6SM -SHRA SCT025 BKN050=



000
FTUS46 KPQR 200909 AAA
TAFPDX
TAF AMD
KPDX 200909Z 2009/2106 13005KT P6SM -RA SCT025 OVC045
     FM201200 17004KT 4SM -RA BR SCT015 BKN025 OVC040
     FM201700 19008KT P6SM VCSH SCT025 BKN050
     FM202000 18006KT P6SM -SHRA SCT025 BKN050=



000
FTUS46 KPQR 200556 CCA
TAFONP
TAF COR
KONP 200556Z 2006/2106 21010KT 5SM -RADZ BR BKN005 OVC015
     FM201100 21007KT P6SM VCSH SCT008 BKN035
     FM201500 20007KT P6SM SCT025 BKN045
      TEMPO 2015/2019 -SHRA BKN025 BKN045
     FM201900 20010KT P6SM -SHRA BKN035 BKN050=



000
FTUS46 KPQR 200556 CCA
TAFONP
TAF COR
KONP 200556Z 2006/2106 21010KT 5SM -RADZ BR BKN005 OVC015
     FM201100 21007KT P6SM VCSH SCT008 BKN035
     FM201500 20007KT P6SM SCT025 BKN045
      TEMPO 2015/2019 -SHRA BKN025 BKN045
     FM201900 20010KT P6SM -SHRA BKN035 BKN050=



000
FTUS46 KPQR 200555 CCA
TAFAST
TAF COR
KAST 200555Z 2006/2106 21010KT 5SM -RADZ BR SCT006 BKN015 OVC030
     FM201000 21007KT P6SM VCSH SCT010 BKN035
     FM201500 20007KT P6SM SCT025 BKN045
      TEMPO 2015/2019 -SHRA BKN025 BKN045
     FM201900 20010KT P6SM -SHRA BKN035 BKN050=



000
FTUS46 KPQR 200555 CCA
TAFAST
TAF COR
KAST 200555Z 2006/2106 21010KT 5SM -RADZ BR SCT006 BKN015 OVC030
     FM201000 21007KT P6SM VCSH SCT010 BKN035
     FM201500 20007KT P6SM SCT025 BKN045
      TEMPO 2015/2019 -SHRA BKN025 BKN045
     FM201900 20010KT P6SM -SHRA BKN035 BKN050=



000
FTUS46 KPQR 200540
TAFSLE
TAF
KSLE 200540Z 2006/2106 18009KT P6SM SCT040 OVC060
     FM200800 18009KT 6SM -RA SCT025 OVC040
     FM201100 16004KT 4SM -RA BR SCT010 OVC025
     FM201600 17008KT P6SM -SHRA BKN010 BKN040=



000
FTUS46 KPQR 200540
TAFONP
TAF
KONP 200540Z 2006/2106 19011G18KT 4SM -RA SCT015 OVC025
     FM200700 20010KT 3SM -RADZ BR BKN015 OVC025
     FM201400 20006KT 4SM -SHRA BR BKN007 OVC015
     FM202000 20013KT P6SM -SHRA OVC020=



000
FTUS46 KPQR 200540
TAFTTD
TAF
KTTD 200540Z 2006/2106 20005KT P6SM SCT035 OVC060
     FM200900 19005KT 6SM -RA SCT025 OVC040
     FM201100 00000KT 3SM -RA BR OVC025
     FM201600 14006KT P6SM -SHRA BKN010 BKN030=



000
FTUS46 KPQR 200540
TAFEUG
TAF
KEUG 200540Z 2006/2106 20009KT P6SM BKN045 OVC070
     FM200800 19008KT 6SM -RA SCT025 OVC040
     FM201100 17005KT 4SM -RA BR OVC025
     FM201600 19009KT P6SM -SHRA BKN010 BKN040=



000
FTUS46 KPQR 200540
TAFHIO
TAF
KHIO 200540Z 2006/2106 18008KT P6SM SCT035 OVC050
     FM200900 18007KT 6SM -RA SCT025 OVC040
     FM201100 16004KT 4SM -RA BR BKN010 OVC025
     FM201500 20004KT P6SM -SHRA BKN008 OVC015=



000
FTUS46 KPQR 200540
TAFPDX
TAF
KPDX 200540Z 2006/2106 10005KT P6SM SCT040 OVC060
     FM200700 18007KT P6SM -RA SCT025 OVC040
     FM201200 16004KT 4SM -RA BR SCT015 OVC025
     FM201400 16006KT P6SM -RA BKN015 BKN030
     FM201800 18006KT P6SM -SHRA OVC020
     FM202000 16006KT P6SM -SHRA OVC050=



000
FTUS46 KPQR 200540
TAFAST
TAF
KAST 200540Z 2006/2106 19011G20KT 4SM -RA BR SCT025 OVC040
     FM200700 20010KT 5SM -RADZ BR BKN020 OVC035
     FM201400 17004KT P6SM -SHRA BKN015
     FM201900 20010KT P6SM -SHRA OVC035=



000
FTUS46 KPQR 200540
TAFAST
TAF
KAST 200540Z 2006/2106 19011G20KT 4SM -RA BR SCT025 OVC040
     FM200700 20010KT 5SM -RADZ BR BKN020 OVC035
     FM201400 17004KT P6SM -SHRA BKN015
     FM201900 20010KT P6SM -SHRA OVC035=



000
FTUS46 KPQR 200540
TAFTTD
TAF
KTTD 200540Z 2006/2106 20005KT P6SM SCT035 OVC060
     FM200900 19005KT 6SM -RA SCT025 OVC040
     FM201100 00000KT 3SM -RA BR OVC025
     FM201600 14006KT P6SM -SHRA BKN010 BKN030=



000
FTUS46 KPQR 200540
TAFPDX
TAF
KPDX 200540Z 2006/2106 10005KT P6SM SCT040 OVC060
     FM200700 18007KT P6SM -RA SCT025 OVC040
     FM201200 16004KT 4SM -RA BR SCT015 OVC025
     FM201400 16006KT P6SM -RA BKN015 BKN030
     FM201800 18006KT P6SM -SHRA OVC020
     FM202000 16006KT P6SM -SHRA OVC050=



000
FTUS46 KPQR 200540
TAFPDX
TAF
KPDX 200540Z 2006/2106 10005KT P6SM SCT040 OVC060
     FM200700 18007KT P6SM -RA SCT025 OVC040
     FM201200 16004KT 4SM -RA BR SCT015 OVC025
     FM201400 16006KT P6SM -RA BKN015 BKN030
     FM201800 18006KT P6SM -SHRA OVC020
     FM202000 16006KT P6SM -SHRA OVC050=



000
FTUS46 KPQR 200540
TAFTTD
TAF
KTTD 200540Z 2006/2106 20005KT P6SM SCT035 OVC060
     FM200900 19005KT 6SM -RA SCT025 OVC040
     FM201100 00000KT 3SM -RA BR OVC025
     FM201600 14006KT P6SM -SHRA BKN010 BKN030=



000
FTUS46 KPQR 200540
TAFSLE
TAF
KSLE 200540Z 2006/2106 18009KT P6SM SCT040 OVC060
     FM200800 18009KT 6SM -RA SCT025 OVC040
     FM201100 16004KT 4SM -RA BR SCT010 OVC025
     FM201600 17008KT P6SM -SHRA BKN010 BKN040=



000
FTUS46 KPQR 200540
TAFONP
TAF
KONP 200540Z 2006/2106 19011G18KT 4SM -RA SCT015 OVC025
     FM200700 20010KT 3SM -RADZ BR BKN015 OVC025
     FM201400 20006KT 4SM -SHRA BR BKN007 OVC015
     FM202000 20013KT P6SM -SHRA OVC020=



000
FTUS46 KPQR 200540
TAFEUG
TAF
KEUG 200540Z 2006/2106 20009KT P6SM BKN045 OVC070
     FM200800 19008KT 6SM -RA SCT025 OVC040
     FM201100 17005KT 4SM -RA BR OVC025
     FM201600 19009KT P6SM -SHRA BKN010 BKN040=



000
FTUS46 KPQR 200540
TAFHIO
TAF
KHIO 200540Z 2006/2106 18008KT P6SM SCT035 OVC050
     FM200900 18007KT 6SM -RA SCT025 OVC040
     FM201100 16004KT 4SM -RA BR BKN010 OVC025
     FM201500 20004KT P6SM -SHRA BKN008 OVC015=



000
FTUS46 KPQR 200540
TAFAST
TAF
KAST 200540Z 2006/2106 19011G20KT 4SM -RA BR SCT025 OVC040
     FM200700 20010KT 5SM -RADZ BR BKN020 OVC035
     FM201400 17004KT P6SM -SHRA BKN015
     FM201900 20010KT P6SM -SHRA OVC035=



000
FTUS46 KPQR 200540
TAFONP
TAF
KONP 200540Z 2006/2106 19011G18KT 4SM -RA SCT015 OVC025
     FM200700 20010KT 3SM -RADZ BR BKN015 OVC025
     FM201400 20006KT 4SM -SHRA BR BKN007 OVC015
     FM202000 20013KT P6SM -SHRA OVC020=



000
FTUS46 KPQR 200540
TAFHIO
TAF
KHIO 200540Z 2006/2106 18008KT P6SM SCT035 OVC050
     FM200900 18007KT 6SM -RA SCT025 OVC040
     FM201100 16004KT 4SM -RA BR BKN010 OVC025
     FM201500 20004KT P6SM -SHRA BKN008 OVC015=



000
FTUS46 KPQR 200540
TAFEUG
TAF
KEUG 200540Z 2006/2106 20009KT P6SM BKN045 OVC070
     FM200800 19008KT 6SM -RA SCT025 OVC040
     FM201100 17005KT 4SM -RA BR OVC025
     FM201600 19009KT P6SM -SHRA BKN010 BKN040=



000
FTUS46 KPQR 200540
TAFSLE
TAF
KSLE 200540Z 2006/2106 18009KT P6SM SCT040 OVC060
     FM200800 18009KT 6SM -RA SCT025 OVC040
     FM201100 16004KT 4SM -RA BR SCT010 OVC025
     FM201600 17008KT P6SM -SHRA BKN010 BKN040=



000
FTUS46 KPQR 200258 AAA
TAFPDX
TAF AMD
KPDX 200258Z 2003/2024 10005KT P6SM SCT035 BKN120
     FM200700 18007KT 6SM -RA SCT025 OVC040
     FM201200 16004KT 4SM -RA BR SCT015 OVC025
     FM201400 16006KT P6SM -SHRA BKN015 BKN030
     FM201800 18006KT P6SM -SHRA OVC020=



000
FTUS46 KPQR 200152 AAA
TAFONP
TAF AMD
KONP 200152Z 2002/2024 19016G25KT P6SM SCT020 OVC040
      TEMPO 2002/2004 -RA OVC025
     FM200400 19012KT 4SM -RADZ BR BKN015 OVC025
     FM200700 20010KT 3SM -RADZ BR BKN015 OVC025
     FM201400 20006KT 4SM -SHRA BR BKN007 OVC013=



000
FTUS46 KPQR 200152 AAA
TAFONP
TAF AMD
KONP 200152Z 2002/2024 19016G25KT P6SM SCT020 OVC040
      TEMPO 2002/2004 -RA OVC025
     FM200400 19012KT 4SM -RADZ BR BKN015 OVC025
     FM200700 20010KT 3SM -RADZ BR BKN015 OVC025
     FM201400 20006KT 4SM -SHRA BR BKN007 OVC013=



000
FTUS46 KPQR 192329
TAFAST
TAF
KAST 192329Z 2000/2024 20023G35KT P6SM -RA BKN045 OVC070
     FM200200 19011G20KT 4SM -RA BR BKN025 OVC040
     FM200600 20010KT 5SM -RADZ BR BKN020 OVC035
     FM201400 17004KT P6SM -SHRA BKN015=



000
FTUS46 KPQR 192329
TAFEUG
TAF
KEUG 192329Z 2000/2024 21008KT P6SM BKN045 OVC070
      TEMPO 2001/2004 -RA
     FM200400 19008KT 6SM -RA SCT025 OVC040
     FM200800 17005KT 4SM -DZ BR OVC025
     FM201600 19009KT P6SM -SHRA BKN010 BKN040=



000
FTUS46 KPQR 192329
TAFHIO
TAF
KHIO 192329Z 2000/2024 20003KT P6SM SCT060 BKN100
     FM200000 18008KT P6SM BKN045 OVC060
      TEMPO 2000/2003 -RA
     FM200300 18007KT 6SM -RA SCT025 OVC040
     FM200800 16004KT 4SM -DZ BR BKN010 OVC025
     FM201500 20004KT P6SM -SHRA BKN008 OVC015=



000
FTUS46 KPQR 192329
TAFPDX
TAF
KPDX 192329Z 2000/2024 23006KT P6SM SCT035 BKN100
      TEMPO 2002/2004 -RA
     FM200400 18007KT 6SM -RA SCT025 OVC040
     FM200800 16004KT 4SM -DZ BR SCT010 OVC025
     FM201600 16006KT P6SM -SHRA BKN010 BKN030
     FM201800 18006KT P6SM -SHRA OVC020=



000
FTUS46 KPQR 192329
TAFTTD
TAF
KTTD 192329Z 2000/2024 20007KT P6SM SCT070
     FM200100 09010KT P6SM BKN050 OVC070
      TEMPO 2002/2004 -RA
     FM200400 19005KT 6SM -RA SCT025 OVC040
     FM200800 00000KT 3SM -DZ BR OVC025
     FM201600 14006KT P6SM -SHRA BKN010 BKN030=



000
FTUS46 KPQR 192329
TAFONP
TAF
KONP 192329Z 2000/2024 19023G33KT P6SM SCT020 OVC040
      TEMPO 2000/2002 -RA OVC025
     FM200200 19020G30KT 4SM -RADZ BR BKN015 OVC025
     FM200700 20011KT 3SM -RADZ BR BKN015 OVC025
     FM201400 20006KT 4SM -SHRA BR BKN007 OVC013=



000
FTUS46 KPQR 192329
TAFSLE
TAF
KSLE 192329Z 2000/2024 18008KT P6SM SCT070
     FM200000 16007KT P6SM BKN050 OVC070
      TEMPO 2001/2004 -RA
     FM200400 18009KT 6SM -RA SCT025 OVC040
     FM200800 16004KT 4SM -DZ BR SCT010 OVC025
     FM201600 17008KT P6SM -SHRA BKN010 BKN040=



000
FTUS46 KPQR 192329
TAFONP
TAF
KONP 192329Z 2000/2024 19023G33KT P6SM SCT020 OVC040
      TEMPO 2000/2002 -RA OVC025
     FM200200 19020G30KT 4SM -RADZ BR BKN015 OVC025
     FM200700 20011KT 3SM -RADZ BR BKN015 OVC025
     FM201400 20006KT 4SM -SHRA BR BKN007 OVC013=



000
FTUS46 KPQR 192329
TAFAST
TAF
KAST 192329Z 2000/2024 20023G35KT P6SM -RA BKN045 OVC070
     FM200200 19011G20KT 4SM -RA BR BKN025 OVC040
     FM200600 20010KT 5SM -RADZ BR BKN020 OVC035
     FM201400 17004KT P6SM -SHRA BKN015=



000
FTUS46 KPQR 192329
TAFSLE
TAF
KSLE 192329Z 2000/2024 18008KT P6SM SCT070
     FM200000 16007KT P6SM BKN050 OVC070
      TEMPO 2001/2004 -RA
     FM200400 18009KT 6SM -RA SCT025 OVC040
     FM200800 16004KT 4SM -DZ BR SCT010 OVC025
     FM201600 17008KT P6SM -SHRA BKN010 BKN040=



000
FTUS46 KPQR 192329
TAFPDX
TAF
KPDX 192329Z 2000/2024 23006KT P6SM SCT035 BKN100
      TEMPO 2002/2004 -RA
     FM200400 18007KT 6SM -RA SCT025 OVC040
     FM200800 16004KT 4SM -DZ BR SCT010 OVC025
     FM201600 16006KT P6SM -SHRA BKN010 BKN030
     FM201800 18006KT P6SM -SHRA OVC020=



000
FTUS46 KPQR 192329
TAFHIO
TAF
KHIO 192329Z 2000/2024 20003KT P6SM SCT060 BKN100
     FM200000 18008KT P6SM BKN045 OVC060
      TEMPO 2000/2003 -RA
     FM200300 18007KT 6SM -RA SCT025 OVC040
     FM200800 16004KT 4SM -DZ BR BKN010 OVC025
     FM201500 20004KT P6SM -SHRA BKN008 OVC015=



000
FTUS46 KPQR 192329
TAFEUG
TAF
KEUG 192329Z 2000/2024 21008KT P6SM BKN045 OVC070
      TEMPO 2001/2004 -RA
     FM200400 19008KT 6SM -RA SCT025 OVC040
     FM200800 17005KT 4SM -DZ BR OVC025
     FM201600 19009KT P6SM -SHRA BKN010 BKN040=



000
FTUS46 KPQR 192329
TAFTTD
TAF
KTTD 192329Z 2000/2024 20007KT P6SM SCT070
     FM200100 09010KT P6SM BKN050 OVC070
      TEMPO 2002/2004 -RA
     FM200400 19005KT 6SM -RA SCT025 OVC040
     FM200800 00000KT 3SM -DZ BR OVC025
     FM201600 14006KT P6SM -SHRA BKN010 BKN030=



000
FTUS46 KPQR 192329
TAFPDX
TAF
KPDX 192329Z 2000/2024 23006KT P6SM SCT035 BKN100
      TEMPO 2002/2004 -RA
     FM200400 18007KT 6SM -RA SCT025 OVC040
     FM200800 16004KT 4SM -DZ BR SCT010 OVC025
     FM201600 16006KT P6SM -SHRA BKN010 BKN030
     FM201800 18006KT P6SM -SHRA OVC020=



000
FTUS46 KPQR 192329
TAFHIO
TAF
KHIO 192329Z 2000/2024 20003KT P6SM SCT060 BKN100
     FM200000 18008KT P6SM BKN045 OVC060
      TEMPO 2000/2003 -RA
     FM200300 18007KT 6SM -RA SCT025 OVC040
     FM200800 16004KT 4SM -DZ BR BKN010 OVC025
     FM201500 20004KT P6SM -SHRA BKN008 OVC015=



000
FTUS46 KPQR 192329
TAFTTD
TAF
KTTD 192329Z 2000/2024 20007KT P6SM SCT070
     FM200100 09010KT P6SM BKN050 OVC070
      TEMPO 2002/2004 -RA
     FM200400 19005KT 6SM -RA SCT025 OVC040
     FM200800 00000KT 3SM -DZ BR OVC025
     FM201600 14006KT P6SM -SHRA BKN010 BKN030=



000
FTUS46 KPQR 192329
TAFONP
TAF
KONP 192329Z 2000/2024 19023G33KT P6SM SCT020 OVC040
      TEMPO 2000/2002 -RA OVC025
     FM200200 19020G30KT 4SM -RADZ BR BKN015 OVC025
     FM200700 20011KT 3SM -RADZ BR BKN015 OVC025
     FM201400 20006KT 4SM -SHRA BR BKN007 OVC013=



000
FTUS46 KPQR 192329
TAFAST
TAF
KAST 192329Z 2000/2024 20023G35KT P6SM -RA BKN045 OVC070
     FM200200 19011G20KT 4SM -RA BR BKN025 OVC040
     FM200600 20010KT 5SM -RADZ BR BKN020 OVC035
     FM201400 17004KT P6SM -SHRA BKN015=



000
FTUS46 KPQR 192329
TAFAST
TAF
KAST 192329Z 2000/2024 20023G35KT P6SM -RA BKN045 OVC070
     FM200200 19011G20KT 4SM -RA BR BKN025 OVC040
     FM200600 20010KT 5SM -RADZ BR BKN020 OVC035
     FM201400 17004KT P6SM -SHRA BKN015=



000
FTUS46 KPQR 192329
TAFPDX
TAF
KPDX 192329Z 2000/2024 23006KT P6SM SCT035 BKN100
      TEMPO 2002/2004 -RA
     FM200400 18007KT 6SM -RA SCT025 OVC040
     FM200800 16004KT 4SM -DZ BR SCT010 OVC025
     FM201600 16006KT P6SM -SHRA BKN010 BKN030
     FM201800 18006KT P6SM -SHRA OVC020=



000
FTUS46 KPQR 192329
TAFSLE
TAF
KSLE 192329Z 2000/2024 18008KT P6SM SCT070
     FM200000 16007KT P6SM BKN050 OVC070
      TEMPO 2001/2004 -RA
     FM200400 18009KT 6SM -RA SCT025 OVC040
     FM200800 16004KT 4SM -DZ BR SCT010 OVC025
     FM201600 17008KT P6SM -SHRA BKN010 BKN040=



000
FTUS46 KPQR 192329
TAFEUG
TAF
KEUG 192329Z 2000/2024 21008KT P6SM BKN045 OVC070
      TEMPO 2001/2004 -RA
     FM200400 19008KT 6SM -RA SCT025 OVC040
     FM200800 17005KT 4SM -DZ BR OVC025
     FM201600 19009KT P6SM -SHRA BKN010 BKN040=



000
FTUS46 KPQR 192329
TAFONP
TAF
KONP 192329Z 2000/2024 19023G33KT P6SM SCT020 OVC040
      TEMPO 2000/2002 -RA OVC025
     FM200200 19020G30KT 4SM -RADZ BR BKN015 OVC025
     FM200700 20011KT 3SM -RADZ BR BKN015 OVC025
     FM201400 20006KT 4SM -SHRA BR BKN007 OVC013=



000
FTUS46 KPQR 192329
TAFSLE
TAF
KSLE 192329Z 2000/2024 18008KT P6SM SCT070
     FM200000 16007KT P6SM BKN050 OVC070
      TEMPO 2001/2004 -RA
     FM200400 18009KT 6SM -RA SCT025 OVC040
     FM200800 16004KT 4SM -DZ BR SCT010 OVC025
     FM201600 17008KT P6SM -SHRA BKN010 BKN040=



000
FTUS46 KPQR 192329
TAFHIO
TAF
KHIO 192329Z 2000/2024 20003KT P6SM SCT060 BKN100
     FM200000 18008KT P6SM BKN045 OVC060
      TEMPO 2000/2003 -RA
     FM200300 18007KT 6SM -RA SCT025 OVC040
     FM200800 16004KT 4SM -DZ BR BKN010 OVC025
     FM201500 20004KT P6SM -SHRA BKN008 OVC015=



000
FTUS46 KPQR 192329
TAFEUG
TAF
KEUG 192329Z 2000/2024 21008KT P6SM BKN045 OVC070
      TEMPO 2001/2004 -RA
     FM200400 19008KT 6SM -RA SCT025 OVC040
     FM200800 17005KT 4SM -DZ BR OVC025
     FM201600 19009KT P6SM -SHRA BKN010 BKN040=



000
FTUS46 KPQR 192329
TAFTTD
TAF
KTTD 192329Z 2000/2024 20007KT P6SM SCT070
     FM200100 09010KT P6SM BKN050 OVC070
      TEMPO 2002/2004 -RA
     FM200400 19005KT 6SM -RA SCT025 OVC040
     FM200800 00000KT 3SM -DZ BR OVC025
     FM201600 14006KT P6SM -SHRA BKN010 BKN030=



000
FTUS46 KPQR 192303 AAC
TAFAST
TAF AMD
KAST 192303Z 1923/2018 20019G29KT P6SM -RA BKN045 OVC070
     FM200200 19011G20KT 4SM -RA BR BKN025 OVC040
     FM200600 20010KT 5SM -RADZ BR BKN020 OVC035
     FM201400 17004KT P6SM -SHRA BKN015=



000
FTUS46 KPQR 192303 AAC
TAFAST
TAF AMD
KAST 192303Z 1923/2018 20019G29KT P6SM -RA BKN045 OVC070
     FM200200 19011G20KT 4SM -RA BR BKN025 OVC040
     FM200600 20010KT 5SM -RADZ BR BKN020 OVC035
     FM201400 17004KT P6SM -SHRA BKN015=



000
FTUS46 KPQR 192303 AAC
TAFAST
TAF AMD
KAST 192303Z 1923/2018 20019G29KT P6SM -RA BKN045 OVC070
     FM200200 19011G20KT 4SM -RA BR BKN025 OVC040
     FM200600 20010KT 5SM -RADZ BR BKN020 OVC035
     FM201400 17004KT P6SM -SHRA BKN015=



000
FTUS46 KPQR 192303 AAC
TAFAST
TAF AMD
KAST 192303Z 1923/2018 20019G29KT P6SM -RA BKN045 OVC070
     FM200200 19011G20KT 4SM -RA BR BKN025 OVC040
     FM200600 20010KT 5SM -RADZ BR BKN020 OVC035
     FM201400 17004KT P6SM -SHRA BKN015=



000
FTUS46 KPQR 192249 AAA
TAFONP
TAF AMD
KONP 192249Z 1923/2018 19023G33KT P6SM SCT020 OVC040
      TEMPO 1923/2002 -RA OVC025
     FM200200 19020G30KT 5SM -RADZ BR BKN015 OVC025
     FM200700 20011KT 3SM -RADZ BR BKN015 OVC025
     FM201400 20006KT 4SM -SHRA BR BKN007 OVC013=



000
FTUS46 KPQR 192249 AAA
TAFONP
TAF AMD
KONP 192249Z 1923/2018 19023G33KT P6SM SCT020 OVC040
      TEMPO 1923/2002 -RA OVC025
     FM200200 19020G30KT 5SM -RADZ BR BKN015 OVC025
     FM200700 20011KT 3SM -RADZ BR BKN015 OVC025
     FM201400 20006KT 4SM -SHRA BR BKN007 OVC013=



000
FTUS46 KPQR 192249 AAA
TAFONP
TAF AMD
KONP 192249Z 1923/2018 19023G33KT P6SM SCT020 OVC040
      TEMPO 1923/2002 -RA OVC025
     FM200200 19020G30KT 5SM -RADZ BR BKN015 OVC025
     FM200700 20011KT 3SM -RADZ BR BKN015 OVC025
     FM201400 20006KT 4SM -SHRA BR BKN007 OVC013=



000
FTUS46 KPQR 192052 AAA
TAFPDX
TAF AMD
KPDX 192052Z 1921/2018 15004KT P6SM SCT060
     FM192200 13006KT P6SM SCT015 BKN070 BKN120
     FM200000 15006KT P6SM BKN045 OVC070
      TEMPO 2000/2004 -RA
     FM200400 18007KT 6SM -RA SCT025 OVC040
     FM200800 16004KT 4SM -DZ BR SCT010 OVC025
     FM201600 16006KT P6SM -SHRA BKN010 BKN030=



000
FTUS46 KPQR 192052 AAA
TAFPDX
TAF AMD
KPDX 192052Z 1921/2018 15004KT P6SM SCT060
     FM192200 13006KT P6SM SCT015 BKN070 BKN120
     FM200000 15006KT P6SM BKN045 OVC070
      TEMPO 2000/2004 -RA
     FM200400 18007KT 6SM -RA SCT025 OVC040
     FM200800 16004KT 4SM -DZ BR SCT010 OVC025
     FM201600 16006KT P6SM -SHRA BKN010 BKN030=



000
FTUS46 KPQR 192027 AAB
TAFAST
TAF AMD
KAST 192027Z 1920/2018 19014KT P6SM SCT015 BKN040
     FM192200 18015G25KT P6SM BKN045 OVC070
      TEMPO 1922/2002 -RA
     FM200200 19011G20KT 4SM -RA BR BKN025 OVC040
     FM200600 20010KT 5SM -RADZ BR BKN020 OVC035
     FM201400 17004KT P6SM -SHRA BKN015=



000
FTUS46 KPQR 192027 AAB
TAFAST
TAF AMD
KAST 192027Z 1920/2018 19014KT P6SM SCT015 BKN040
     FM192200 18015G25KT P6SM BKN045 OVC070
      TEMPO 1922/2002 -RA
     FM200200 19011G20KT 4SM -RA BR BKN025 OVC040
     FM200600 20010KT 5SM -RADZ BR BKN020 OVC035
     FM201400 17004KT P6SM -SHRA BKN015=



000
FTUS46 KPQR 191859 AAA
TAFAST
TAF AMD
KAST 191859Z 1919/2018 19009KT P6SM SCT015 BKN035
     FM192200 18011KT P6SM BKN045 OVC070
      TEMPO 1922/2002 -RA
     FM200200 19011G20KT 4SM -RA BR BKN025 OVC040
     FM200600 20010KT 5SM -RADZ BR BKN020 OVC035
     FM201400 17004KT P6SM -SHRA BKN015=



000
FTUS46 KPQR 191859 AAA
TAFAST
TAF AMD
KAST 191859Z 1919/2018 19009KT P6SM SCT015 BKN035
     FM192200 18011KT P6SM BKN045 OVC070
      TEMPO 1922/2002 -RA
     FM200200 19011G20KT 4SM -RA BR BKN025 OVC040
     FM200600 20010KT 5SM -RADZ BR BKN020 OVC035
     FM201400 17004KT P6SM -SHRA BKN015=



000
FTUS46 KPQR 191743 CCA
TAFAST
TAF COR
KAST 191743Z 1918/2018 19012G22KT P6SM SCT015 BKN030
     FM192200 18011KT P6SM BKN045 OVC070
      TEMPO 1922/2002 -RA
     FM200200 19011G20KT 4SM -RA BR BKN025 OVC040
     FM200600 20010KT 5SM -RADZ BR BKN020 OVC035
     FM201400 17004KT P6SM -SHRA BKN015=



000
FTUS46 KPQR 191743 CCA
TAFAST
TAF COR
KAST 191743Z 1918/2018 19012G22KT P6SM SCT015 BKN030
     FM192200 18011KT P6SM BKN045 OVC070
      TEMPO 1922/2002 -RA
     FM200200 19011G20KT 4SM -RA BR BKN025 OVC040
     FM200600 20010KT 5SM -RADZ BR BKN020 OVC035
     FM201400 17004KT P6SM -SHRA BKN015=



000
FTUS46 KPQR 191742
TAFPDX
TAF
KPDX 191742Z 1918/2018 10007KT P6SM SCT060
     FM192200 13006KT P6SM SCT015 BKN070 BKN120
     FM200000 15006KT P6SM BKN045 OVC070
      TEMPO 2000/2004 -RA
     FM200400 18007KT 6SM -RA SCT025 OVC040
     FM200800 16004KT 4SM -DZ BR SCT010 OVC025
     FM201600 16006KT P6SM -SHRA BKN010 BKN030=



000
FTUS46 KPQR 191742
TAFTTD
TAF
KTTD 191742Z 1918/2018 09011KT P6SM SCT070
     FM192200 13006KT P6SM SCT015 BKN070 BKN120
     FM200100 09010KT P6SM BKN050 OVC070
      TEMPO 2001/2004 -RA
     FM200400 19005KT 6SM -RA SCT025 OVC040
     FM200800 00000KT 3SM -DZ BR OVC025
     FM201600 14006KT P6SM -SHRA BKN010 BKN030=



000
FTUS46 KPQR 191742
TAFHIO
TAF
KHIO 191742Z 1918/2018 11006KT 2SM BR OVC005
     FM191830 12003KT P6SM SCT060 BKN100
     FM200000 18008KT P6SM BKN045 OVC060
      TEMPO 2000/2003 -RA
     FM200300 18007KT 6SM -RA SCT025 OVC040
     FM200800 16004KT 4SM -DZ BR BKN010 OVC025
     FM201500 20004KT P6SM -SHRA BKN008 OVC015=



000
FTUS46 KPQR 191742
TAFEUG
TAF
KEUG 191742Z 1918/2018 15004KT P6SM SCT010
     FM192300 17004KT P6SM BKN045 OVC070
      TEMPO 2000/2004 -RA
     FM200400 19008KT 6SM -RA SCT025 OVC040
     FM200800 17005KT 4SM -DZ BR OVC025
     FM201600 19009KT P6SM -SHRA BKN010 BKN040=



000
FTUS46 KPQR 191742
TAFSLE
TAF
KSLE 191742Z 1918/2018 16005KT P6SM SCT007
     FM192200 18008KT P6SM SCT015 BKN070 BKN120
     FM200000 16007KT P6SM BKN050 OVC070
      TEMPO 2000/2004 -RA
     FM200400 18009KT 6SM -RA SCT025 OVC040
     FM200800 16004KT 4SM -DZ BR SCT010 OVC025
     FM201600 17008KT P6SM -SHRA BKN010 BKN040=



000
FTUS46 KPQR 191742
TAFAST
TAF
KAST 191742Z 1918/2018 15012G22KT P6SM SCT015 BKN030
     FM192200 18011KT P6SM BKN045 OVC070
      TEMPO 1922/2002 -RA
     FM200200 19011G20KT 4SM -RA BR BKN025 OVC040
     FM200600 20010KT 5SM -RADZ BR BKN020 OVC035
     FM201400 17004KT P6SM -SHRA BKN015=



000
FTUS46 KPQR 191742
TAFONP
TAF
KONP 191742Z 1918/2018 18013G21KT P6SM SCT011 BKN035
     FM192200 18016G22KT P6SM BKN020 OVC040
      TEMPO 1922/2001 -RA
     FM200100 19020G30KT 5SM -RADZ BR BKN015 OVC025
     FM200700 20011KT 3SM -RADZ BR BKN015 OVC025
     FM201400 20006KT 4SM -SHRA BR BKN007 OVC013=



000
FTUS46 KPQR 191742
TAFEUG
TAF
KEUG 191742Z 1918/2018 15004KT P6SM SCT010
     FM192300 17004KT P6SM BKN045 OVC070
      TEMPO 2000/2004 -RA
     FM200400 19008KT 6SM -RA SCT025 OVC040
     FM200800 17005KT 4SM -DZ BR OVC025
     FM201600 19009KT P6SM -SHRA BKN010 BKN040=



000
FTUS46 KPQR 191742
TAFAST
TAF
KAST 191742Z 1918/2018 15012G22KT P6SM SCT015 BKN030
     FM192200 18011KT P6SM BKN045 OVC070
      TEMPO 1922/2002 -RA
     FM200200 19011G20KT 4SM -RA BR BKN025 OVC040
     FM200600 20010KT 5SM -RADZ BR BKN020 OVC035
     FM201400 17004KT P6SM -SHRA BKN015=



000
FTUS46 KPQR 191742
TAFHIO
TAF
KHIO 191742Z 1918/2018 11006KT 2SM BR OVC005
     FM191830 12003KT P6SM SCT060 BKN100
     FM200000 18008KT P6SM BKN045 OVC060
      TEMPO 2000/2003 -RA
     FM200300 18007KT 6SM -RA SCT025 OVC040
     FM200800 16004KT 4SM -DZ BR BKN010 OVC025
     FM201500 20004KT P6SM -SHRA BKN008 OVC015=



000
FTUS46 KPQR 191742
TAFPDX
TAF
KPDX 191742Z 1918/2018 10007KT P6SM SCT060
     FM192200 13006KT P6SM SCT015 BKN070 BKN120
     FM200000 15006KT P6SM BKN045 OVC070
      TEMPO 2000/2004 -RA
     FM200400 18007KT 6SM -RA SCT025 OVC040
     FM200800 16004KT 4SM -DZ BR SCT010 OVC025
     FM201600 16006KT P6SM -SHRA BKN010 BKN030=



000
FTUS46 KPQR 191742
TAFTTD
TAF
KTTD 191742Z 1918/2018 09011KT P6SM SCT070
     FM192200 13006KT P6SM SCT015 BKN070 BKN120
     FM200100 09010KT P6SM BKN050 OVC070
      TEMPO 2001/2004 -RA
     FM200400 19005KT 6SM -RA SCT025 OVC040
     FM200800 00000KT 3SM -DZ BR OVC025
     FM201600 14006KT P6SM -SHRA BKN010 BKN030=



000
FTUS46 KPQR 191742
TAFONP
TAF
KONP 191742Z 1918/2018 18013G21KT P6SM SCT011 BKN035
     FM192200 18016G22KT P6SM BKN020 OVC040
      TEMPO 1922/2001 -RA
     FM200100 19020G30KT 5SM -RADZ BR BKN015 OVC025
     FM200700 20011KT 3SM -RADZ BR BKN015 OVC025
     FM201400 20006KT 4SM -SHRA BR BKN007 OVC013=



000
FTUS46 KPQR 191742
TAFSLE
TAF
KSLE 191742Z 1918/2018 16005KT P6SM SCT007
     FM192200 18008KT P6SM SCT015 BKN070 BKN120
     FM200000 16007KT P6SM BKN050 OVC070
      TEMPO 2000/2004 -RA
     FM200400 18009KT 6SM -RA SCT025 OVC040
     FM200800 16004KT 4SM -DZ BR SCT010 OVC025
     FM201600 17008KT P6SM -SHRA BKN010 BKN040=



000
FTUS46 KPQR 191600 AAA
TAFHIO
TAF AMD
KHIO 191600Z 1916/2012 11003KT 1/2SM FG OVC002
     FM191700 17003KT P6SM SCT060 BKN100
     FM200000 18008KT P6SM BKN045 OVC060
      TEMPO 2000/2003 -RA
     FM200300 18007KT 6SM -RA SCT025 OVC040
     FM200800 16004KT 4SM -DZ BR OVC025=



000
FTUS46 KPQR 191600 AAA
TAFHIO
TAF AMD
KHIO 191600Z 1916/2012 11003KT 1/2SM FG OVC002
     FM191700 17003KT P6SM SCT060 BKN100
     FM200000 18008KT P6SM BKN045 OVC060
      TEMPO 2000/2003 -RA
     FM200300 18007KT 6SM -RA SCT025 OVC040
     FM200800 16004KT 4SM -DZ BR OVC025=



000
FTUS46 KPQR 191503 AAB
TAFEUG
TAF AMD
KEUG 191503Z 1915/2012 15004KT P6SM SCT010 BKN100
     FM192300 17004KT P6SM BKN045 OVC070
      TEMPO 2000/2004 -RA
     FM200400 19008KT 6SM -RA SCT025 OVC040
     FM200800 17005KT 4SM -DZ BR OVC025=



000
FTUS46 KPQR 191503 AAB
TAFEUG
TAF AMD
KEUG 191503Z 1915/2012 15004KT P6SM SCT010 BKN100
     FM192300 17004KT P6SM BKN045 OVC070
      TEMPO 2000/2004 -RA
     FM200400 19008KT 6SM -RA SCT025 OVC040
     FM200800 17005KT 4SM -DZ BR OVC025=



000
FTUS46 KPQR 191502 AAC
TAFPDX
TAF AMD
KPDX 191502Z 1915/2012 11004KT P6SM SCT007 BKN100
      TEMPO 1915/1916 OVC007
     FM191700 13006KT P6SM SCT015 SCT070 BKN120
     FM200000 15006KT P6SM BKN045 OVC070
      TEMPO 2000/2004 -RA
     FM200400 18007KT 6SM -RA SCT025 OVC040
     FM200800 16004KT 4SM -DZ BR OVC025=



000
FTUS46 KPQR 191502 AAC
TAFPDX
TAF AMD
KPDX 191502Z 1915/2012 11004KT P6SM SCT007 BKN100
      TEMPO 1915/1916 OVC007
     FM191700 13006KT P6SM SCT015 SCT070 BKN120
     FM200000 15006KT P6SM BKN045 OVC070
      TEMPO 2000/2004 -RA
     FM200400 18007KT 6SM -RA SCT025 OVC040
     FM200800 16004KT 4SM -DZ BR OVC025=



000
FTUS46 KPQR 191446 AAA
TAFONP
TAF AMD
KONP 191446Z 1915/2012 VRB03KT P6SM BKN020 OVC100
     FM191700 18013KT P6SM SCT011 BKN045 BKN100
     FM192200 18014G22KT P6SM BKN020 OVC040
      TEMPO 1922/2001 -RA
     FM200100 19017G30KT 5SM -RADZ BR BKN015 OVC025
     FM200700 20011KT 3SM -RADZ BR BKN015 OVC025=



000
FTUS46 KPQR 191446 AAA
TAFONP
TAF AMD
KONP 191446Z 1915/2012 VRB03KT P6SM BKN020 OVC100
     FM191700 18013KT P6SM SCT011 BKN045 BKN100
     FM192200 18014G22KT P6SM BKN020 OVC040
      TEMPO 1922/2001 -RA
     FM200100 19017G30KT 5SM -RADZ BR BKN015 OVC025
     FM200700 20011KT 3SM -RADZ BR BKN015 OVC025=



000
FTUS46 KPQR 191441 AAB
TAFPDX
TAF AMD
KPDX 191441Z 1915/2012 11004KT P6SM BKN007 BKN100
     FM191700 13006KT P6SM SCT015 SCT070 BKN120
     FM200000 15006KT P6SM BKN045 OVC070
      TEMPO 2000/2004 -RA
     FM200400 18007KT 6SM -RA SCT025 OVC040
     FM200800 16004KT 4SM -DZ BR OVC025=



000
FTUS46 KPQR 191441 AAB
TAFPDX
TAF AMD
KPDX 191441Z 1915/2012 11004KT P6SM BKN007 BKN100
     FM191700 13006KT P6SM SCT015 SCT070 BKN120
     FM200000 15006KT P6SM BKN045 OVC070
      TEMPO 2000/2004 -RA
     FM200400 18007KT 6SM -RA SCT025 OVC040
     FM200800 16004KT 4SM -DZ BR OVC025=



000
FTUS46 KPQR 191352 AAA
TAFPDX
TAF AMD
KPDX 191352Z 1914/2012 11004KT P6SM SCT005 BKN100
     FM192000 13006KT P6SM SCT070 BKN120
     FM200000 15006KT P6SM BKN045 OVC070
      TEMPO 2000/2004 -RA
     FM200400 18007KT 6SM -RA SCT025 OVC040
     FM200800 16004KT 4SM -DZ BR OVC025=



000
FTUS46 KPQR 191352 AAA
TAFPDX
TAF AMD
KPDX 191352Z 1914/2012 11004KT P6SM SCT005 BKN100
     FM192000 13006KT P6SM SCT070 BKN120
     FM200000 15006KT P6SM BKN045 OVC070
      TEMPO 2000/2004 -RA
     FM200400 18007KT 6SM -RA SCT025 OVC040
     FM200800 16004KT 4SM -DZ BR OVC025=



000
FTUS46 KPQR 191348 AAA
TAFAST
TAF AMD
KAST 191348Z 1914/2012 14005KT P6SM SCT006 BKN035 OVC050
     FM191600 15008KT P6SM SCT035 BKN050
     FM192200 18011KT P6SM BKN045 OVC070
      TEMPO 1922/2002 -RA
     FM200200 19011G20KT 4SM -RA BR BKN025 OVC040
     FM200600 20010KT 5SM -RADZ BR BKN020 OVC035=



000
FTUS46 KPQR 191347 AAA
TAFSLE
TAF AMD
KSLE 191347Z 1914/2012 00000KT P6SM BKN004
     FM191700 16005KT P6SM SCT004 BKN100
     FM200000 16007KT P6SM BKN050 OVC070
      TEMPO 2000/2004 -RA
     FM200400 18009KT 6SM -RA SCT025 OVC040
     FM200800 16004KT 4SM -DZ BR OVC025=



000
FTUS46 KPQR 191347 AAA
TAFSLE
TAF AMD
KSLE 191347Z 1914/2012 00000KT P6SM BKN004
     FM191700 16005KT P6SM SCT004 BKN100
     FM200000 16007KT P6SM BKN050 OVC070
      TEMPO 2000/2004 -RA
     FM200400 18009KT 6SM -RA SCT025 OVC040
     FM200800 16004KT 4SM -DZ BR OVC025=



000
FTUS46 KPQR 191347 CCA
TAFEUG
TAF COR
KEUG 191347Z 1914/2012 14005KT P6SM BKN008
     FM191700 15004KT P6SM SCT010 BKN100
     FM192300 17004KT P6SM BKN045 OVC070
      TEMPO 2000/2004 -RA
     FM200400 19008KT 6SM -RA SCT025 OVC040
     FM200800 17005KT 4SM -DZ BR OVC025=



000
FTUS46 KPQR 191347 CCA
TAFEUG
TAF COR
KEUG 191347Z 1914/2012 14005KT P6SM BKN008
     FM191700 15004KT P6SM SCT010 BKN100
     FM192300 17004KT P6SM BKN045 OVC070
      TEMPO 2000/2004 -RA
     FM200400 19008KT 6SM -RA SCT025 OVC040
     FM200800 17005KT 4SM -DZ BR OVC025=



000
FTUS46 KPQR 191346 AAA
TAFEUG
TAF AMD
KEUG 191346Z 1914/2012 14005KT P6SM BKN008
      TEMPO 1914/1916 2SM BR
     FM191700 15004KT P6SM SCT010 BKN100
     FM192300 17004KT P6SM BKN045 OVC070
      TEMPO 2000/2004 -RA
     FM200400 19008KT 6SM -RA SCT025 OVC040
     FM200800 17005KT 4SM -DZ BR OVC025=



000
FTUS46 KPQR 191346 AAA
TAFEUG
TAF AMD
KEUG 191346Z 1914/2012 14005KT P6SM BKN008
      TEMPO 1914/1916 2SM BR
     FM191700 15004KT P6SM SCT010 BKN100
     FM192300 17004KT P6SM BKN045 OVC070
      TEMPO 2000/2004 -RA
     FM200400 19008KT 6SM -RA SCT025 OVC040
     FM200800 17005KT 4SM -DZ BR OVC025=



000
FTUS46 KPQR 191137
TAFAST
TAF
KAST 191137Z 1912/2012 14005KT P6SM BKN006 OVC050
     FM191600 15008KT P6SM SCT007 BKN045 OVC070
     FM192200 18011KT P6SM BKN045 OVC070
      TEMPO 1922/2002 -RA
     FM200200 19011G20KT 4SM -RA BR BKN025 OVC040
     FM200600 20010KT 5SM -RADZ BR BKN020 OVC035=



000
FTUS46 KPQR 191137
TAFSLE
TAF
KSLE 191137Z 1912/2012 00000KT P6SM BKN003
      TEMPO 1912/1916 1SM BR BKN002
     FM191700 16005KT P6SM SCT004 BKN100
     FM200000 16007KT P6SM BKN050 OVC070
      TEMPO 2000/2004 -RA
     FM200400 18009KT 6SM -RA SCT025 OVC040
     FM200800 16004KT 4SM -DZ BR OVC025=



000
FTUS46 KPQR 191137
TAFHIO
TAF
KHIO 191137Z 1912/2012 00000KT P6SM SCT002 BKN100
      TEMPO 1912/1916 1/4SM FG VV002
     FM191700 17003KT P6SM SCT060 BKN100
     FM200000 18008KT P6SM BKN045 OVC060
      TEMPO 2000/2003 -RA
     FM200300 18007KT 6SM -RA SCT025 OVC040
     FM200800 16004KT 4SM -DZ BR OVC025=



000
FTUS46 KPQR 191137
TAFTTD
TAF
KTTD 191137Z 1912/2012 09007KT P6SM BKN100
     FM191900 09011KT P6SM SCT070 BKN100
     FM200100 09010KT P6SM BKN050 OVC070
      TEMPO 2001/2004 -RA
     FM200400 19005KT 6SM -RA SCT025 OVC040
     FM200800 00000KT 3SM -DZ BR OVC025=



000
FTUS46 KPQR 191137
TAFONP
TAF
KONP 191137Z 1912/2012 18011KT 6SM BR BKN007 OVC100
     FM191700 18013KT P6SM SCT011 BKN045 BKN100
     FM192200 18014G22KT P6SM BKN020 OVC040
      TEMPO 1922/2001 -RA
     FM200100 19017G30KT 5SM -RADZ BR BKN015 OVC025
     FM200700 20011KT 3SM -RADZ BR BKN015 OVC025=



000
FTUS46 KPQR 191137
TAFEUG
TAF
KEUG 191137Z 1912/2012 18005KT P6SM BKN004
      TEMPO 1912/1916 2SM BR
     FM191700 15004KT P6SM SCT004 BKN100
     FM192300 17004KT P6SM BKN045 OVC070
      TEMPO 2000/2004 -RA
     FM200400 19008KT 6SM -RA SCT025 OVC040
     FM200800 17005KT 4SM -DZ BR OVC025=



000
FTUS46 KPQR 191137
TAFPDX
TAF
KPDX 191137Z 1912/2012 11004KT P6SM SCT005 BKN100
      TEMPO 1912/1916 1SM BR BKN005
     FM192000 13006KT P6SM SCT070 BKN120
     FM200000 15006KT P6SM BKN045 OVC070
      TEMPO 2000/2004 -RA
     FM200400 18007KT 6SM -RA SCT025 OVC040
     FM200800 16004KT 4SM -DZ BR OVC025=



000
FTUS46 KPQR 191137
TAFHIO
TAF
KHIO 191137Z 1912/2012 00000KT P6SM SCT002 BKN100
      TEMPO 1912/1916 1/4SM FG VV002
     FM191700 17003KT P6SM SCT060 BKN100
     FM200000 18008KT P6SM BKN045 OVC060
      TEMPO 2000/2003 -RA
     FM200300 18007KT 6SM -RA SCT025 OVC040
     FM200800 16004KT 4SM -DZ BR OVC025=



000
FTUS46 KPQR 191137
TAFONP
TAF
KONP 191137Z 1912/2012 18011KT 6SM BR BKN007 OVC100
     FM191700 18013KT P6SM SCT011 BKN045 BKN100
     FM192200 18014G22KT P6SM BKN020 OVC040
      TEMPO 1922/2001 -RA
     FM200100 19017G30KT 5SM -RADZ BR BKN015 OVC025
     FM200700 20011KT 3SM -RADZ BR BKN015 OVC025=



000
FTUS46 KPQR 191137
TAFPDX
TAF
KPDX 191137Z 1912/2012 11004KT P6SM SCT005 BKN100
      TEMPO 1912/1916 1SM BR BKN005
     FM192000 13006KT P6SM SCT070 BKN120
     FM200000 15006KT P6SM BKN045 OVC070
      TEMPO 2000/2004 -RA
     FM200400 18007KT 6SM -RA SCT025 OVC040
     FM200800 16004KT 4SM -DZ BR OVC025=



000
FTUS46 KPQR 191137
TAFEUG
TAF
KEUG 191137Z 1912/2012 18005KT P6SM BKN004
      TEMPO 1912/1916 2SM BR
     FM191700 15004KT P6SM SCT004 BKN100
     FM192300 17004KT P6SM BKN045 OVC070
      TEMPO 2000/2004 -RA
     FM200400 19008KT 6SM -RA SCT025 OVC040
     FM200800 17005KT 4SM -DZ BR OVC025=



000
FTUS46 KPQR 191137
TAFAST
TAF
KAST 191137Z 1912/2012 14005KT P6SM BKN006 OVC050
     FM191600 15008KT P6SM SCT007 BKN045 OVC070
     FM192200 18011KT P6SM BKN045 OVC070
      TEMPO 1922/2002 -RA
     FM200200 19011G20KT 4SM -RA BR BKN025 OVC040
     FM200600 20010KT 5SM -RADZ BR BKN020 OVC035=



000
FTUS46 KPQR 191137
TAFTTD
TAF
KTTD 191137Z 1912/2012 09007KT P6SM BKN100
     FM191900 09011KT P6SM SCT070 BKN100
     FM200100 09010KT P6SM BKN050 OVC070
      TEMPO 2001/2004 -RA
     FM200400 19005KT 6SM -RA SCT025 OVC040
     FM200800 00000KT 3SM -DZ BR OVC025=



000
FTUS46 KPQR 191137
TAFSLE
TAF
KSLE 191137Z 1912/2012 00000KT P6SM BKN003
      TEMPO 1912/1916 1SM BR BKN002
     FM191700 16005KT P6SM SCT004 BKN100
     FM200000 16007KT P6SM BKN050 OVC070
      TEMPO 2000/2004 -RA
     FM200400 18009KT 6SM -RA SCT025 OVC040
     FM200800 16004KT 4SM -DZ BR OVC025=



000
FTUS46 KPQR 191025 AAB
TAFPDX
TAF AMD
KPDX 191025Z 1910/2006 00000KT 1/4SM FG BKN002 OVC100
      TEMPO 1910/1913 2SM BR BKN002
     FM191300 VRB02KT 4SM BR BKN003 OVC100
     FM191700 00000KT P6SM SCT004 BKN100
     FM192100 16006KT P6SM SCT070 BKN120
     FM200100 15006KT P6SM BKN050 OVC070=



000
FTUS46 KPQR 191025 AAB
TAFPDX
TAF AMD
KPDX 191025Z 1910/2006 00000KT 1/4SM FG BKN002 OVC100
      TEMPO 1910/1913 2SM BR BKN002
     FM191300 VRB02KT 4SM BR BKN003 OVC100
     FM191700 00000KT P6SM SCT004 BKN100
     FM192100 16006KT P6SM SCT070 BKN120
     FM200100 15006KT P6SM BKN050 OVC070=



000
FTUS46 KPQR 190913 AAA
TAFPDX
TAF AMD
KPDX 190913Z 1909/2006 00000KT 5SM BR SCT003 BKN100
      TEMPO 1909/1913 3/4SM BR BKN003
     FM191600 00000KT P6SM FEW006 SCT050 BKN100
     FM192200 16006KT P6SM SCT070 BKN120
     FM200100 15006KT P6SM BKN050 OVC070=



000
FTUS46 KPQR 190913 AAA
TAFPDX
TAF AMD
KPDX 190913Z 1909/2006 00000KT 5SM BR SCT003 BKN100
      TEMPO 1909/1913 3/4SM BR BKN003
     FM191600 00000KT P6SM FEW006 SCT050 BKN100
     FM192200 16006KT P6SM SCT070 BKN120
     FM200100 15006KT P6SM BKN050 OVC070=



000
FTUS46 KPQR 190904 AAA
TAFONP
TAF AMD
KONP 190904Z 1909/2006 17007KT P6SM BKN009 OVC100
     FM191700 19011KT P6SM SCT011 BKN045 BKN100
     FM192200 19012G22KT P6SM BKN020 OVC040
      TEMPO 1922/2001 -RA
     FM200100 19017G30KT 5SM -RADZ BR BKN015 OVC025=



000
FTUS46 KPQR 190904 AAA
TAFONP
TAF AMD
KONP 190904Z 1909/2006 17007KT P6SM BKN009 OVC100
     FM191700 19011KT P6SM SCT011 BKN045 BKN100
     FM192200 19012G22KT P6SM BKN020 OVC040
      TEMPO 1922/2001 -RA
     FM200100 19017G30KT 5SM -RADZ BR BKN015 OVC025=



000
FTUS46 KPQR 190903 AAA
TAFAST
TAF AMD
KAST 190903Z 1909/2006 15005KT P6SM SCT002 BKN045 OVC100
      TEMPO 1909/1913 3SM BR
     FM192200 17011KT P6SM BKN045 OVC070
      TEMPO 1922/2001 -RA
     FM200100 19011KT 5SM -RA BR BKN025 OVC040=



000
FTUS46 KPQR 190706 AAA
TAFSLE
TAF AMD
KSLE 190706Z 1907/2006 00000KT 6SM BR SCT002
      TEMPO 1907/1910 3/4SM BR BKN002
     FM191000 00000KT 1SM BR BKN003
     FM191600 00000KT 4SM BR BKN003
     FM191800 00000KT P6SM SCT004 BKN100
     FM192000 16005KT P6SM SCT060 BKN100
     FM200000 16007KT P6SM BKN045 OVC060=



000
FTUS46 KPQR 190544 CCA
TAFEUG
TAF COR
KEUG 190544Z 1906/2006 00000KT P6SM SCT100
     FM191000 00000KT 1/2SM FG BKN002
      TEMPO 1910/1914 1/4SM FG
     FM191400 00000KT 3SM BR OVC004
     FM191800 15003KT P6SM SCT004 BKN100
     FM192000 17004KT P6SM SCT060 BKN100
     FM200100 19008KT P6SM BKN045 OVC060=



000
FTUS46 KPQR 190544 CCB
TAFEUG
TAF COR
KEUG 190544Z 1906/2006 00000KT P6SM SCT100
     FM191000 00000KT 1/2SM FG BKN002
      TEMPO 1910/1914 1/4SM FG
     FM191600 00000KT 3SM BR OVC004
     FM191800 15003KT P6SM SCT004 BKN100
     FM192000 17004KT P6SM SCT060 BKN100
     FM200100 19008KT P6SM BKN045 OVC060=



000
FTUS46 KPQR 190540
TAFSLE
TAF
KSLE 190540Z 1906/2006 00000KT P6SM SCT100
     FM191100 00000KT 1SM BR BKN003
     FM191600 00000KT 4SM BR BKN003
     FM191800 00000KT P6SM SCT004 BKN100
     FM192000 16005KT P6SM SCT060 BKN100
     FM200000 16007KT P6SM BKN045 OVC060=



000
FTUS46 KPQR 190540
TAFHIO
TAF
KHIO 190540Z 1906/2006 00000KT 4SM BR SCT002
      TEMPO 1906/1909 1/4SM FG BKN001
     FM190900 00000KT 1/2SM FG VV002
     FM191600 00000KT 1SM BR BKN003
     FM191800 00000KT 5SM BR SCT004 BKN100
     FM192000 17003KT P6SM SCT060 BKN100
     FM200000 18008KT P6SM BKN045 OVC060=



000
FTUS46 KPQR 190540
TAFAST
TAF
KAST 190540Z 1906/2006 10003KT 3SM BR SCT002
      TEMPO 1906/1910 1/2SM FG BKN002
     FM191000 14003KT 1SM BR BKN003 BKN120
     FM191600 15005KT P6SM SCT005 SCT070 BKN120
     FM192200 17011KT P6SM BKN045 OVC070
      TEMPO 1922/2001 -RA
     FM200100 19011KT 5SM -RA BR BKN025 OVC040=



000
FTUS46 KPQR 190540
TAFSLE
TAF
KSLE 190540Z 1906/2006 00000KT P6SM SCT100
     FM191100 00000KT 1SM BR BKN003
     FM191600 00000KT 4SM BR BKN003
     FM191800 00000KT P6SM SCT004 BKN100
     FM192000 16005KT P6SM SCT060 BKN100
     FM200000 16007KT P6SM BKN045 OVC060=



000
FTUS46 KPQR 190540
TAFAST
TAF
KAST 190540Z 1906/2006 10003KT 3SM BR SCT002
      TEMPO 1906/1910 1/2SM FG BKN002
     FM191000 14003KT 1SM BR BKN003 BKN120
     FM191600 15005KT P6SM SCT005 SCT070 BKN120
     FM192200 17011KT P6SM BKN045 OVC070
      TEMPO 1922/2001 -RA
     FM200100 19011KT 5SM -RA BR BKN025 OVC040=



000
FTUS46 KPQR 190540
TAFEUG
TAF
KEUG 190540Z 1906/2006 00000KT P6SM MIFG SCT100
      TEMPO 1906/1910 3/4SM BR
     FM191000 00000KT 1/4SM FG VV002
     FM191600 00000KT 2SM BR OVC002
     FM191800 15003KT P6SM SCT004 BKN100
     FM192000 17004KT P6SM SCT060 BKN100
     FM200100 19008KT P6SM BKN045 OVC060=



000
FTUS46 KPQR 190540
TAFHIO
TAF
KHIO 190540Z 1906/2006 00000KT 4SM BR SCT002
      TEMPO 1906/1909 1/4SM FG BKN001
     FM190900 00000KT 1/2SM FG VV002
     FM191600 00000KT 1SM BR BKN003
     FM191800 00000KT 5SM BR SCT004 BKN100
     FM192000 17003KT P6SM SCT060 BKN100
     FM200000 18008KT P6SM BKN045 OVC060=



000
FTUS46 KPQR 190540
TAFTTD
TAF
KTTD 190540Z 1906/2006 09010KT P6SM SCT080
     FM192000 09013KT P6SM SCT070 BKN120
     FM200100 09012KT P6SM BKN050 OVC070=



000
FTUS46 KPQR 190540
TAFPDX
TAF
KPDX 190540Z 1906/2006 00000KT P6SM SCT080
     FM191100 00000KT 4SM BR SCT003
     FM191600 00000KT P6SM FEW010 BKN200
     FM192200 16006KT P6SM SCT070 BKN120
     FM200100 15006KT P6SM BKN050 OVC070=



000
FTUS46 KPQR 190540
TAFONP
TAF
KONP 190540Z 1906/2006 19008KT P6SM BKN005 OVC100
     FM191600 19012KT P6SM SCT005 BKN020 BKN100
     FM192200 19012G20KT P6SM BKN020 OVC040
      TEMPO 1922/2001 -RA
     FM200100 19011KT 5SM -RADZ BR BKN015 OVC025=



000
FTUS46 KPQR 190540
TAFONP
TAF
KONP 190540Z 1906/2006 19008KT P6SM BKN005 OVC100
     FM191600 19012KT P6SM SCT005 BKN020 BKN100
     FM192200 19012G20KT P6SM BKN020 OVC040
      TEMPO 1922/2001 -RA
     FM200100 19011KT 5SM -RADZ BR BKN015 OVC025=



000
FTUS46 KPQR 190540
TAFPDX
TAF
KPDX 190540Z 1906/2006 00000KT P6SM SCT080
     FM191100 00000KT 4SM BR SCT003
     FM191600 00000KT P6SM FEW010 BKN200
     FM192200 16006KT P6SM SCT070 BKN120
     FM200100 15006KT P6SM BKN050 OVC070=



000
FTUS46 KPQR 190540
TAFTTD
TAF
KTTD 190540Z 1906/2006 09010KT P6SM SCT080
     FM192000 09013KT P6SM SCT070 BKN120
     FM200100 09012KT P6SM BKN050 OVC070=



000
FTUS46 KPQR 190540
TAFEUG
TAF
KEUG 190540Z 1906/2006 00000KT P6SM MIFG SCT100
      TEMPO 1906/1910 3/4SM BR
     FM191000 00000KT 1/4SM FG VV002
     FM191600 00000KT 2SM BR OVC002
     FM191800 15003KT P6SM SCT004 BKN100
     FM192000 17004KT P6SM SCT060 BKN100
     FM200100 19008KT P6SM BKN045 OVC060=



000
FTUS46 KPQR 190436 AAB
TAFONP
TAF AMD
KONP 190436Z 1905/1924 19011KT 6SM BR BKN005 OVC025
     FM190800 17005KT 2SM BR OVC003
     FM191700 17009KT 5SM BR SCT003 OVC050
     FM192200 19015G22KT 3SM BR OVC020=



000
FTUS46 KPQR 190436 AAB
TAFONP
TAF AMD
KONP 190436Z 1905/1924 19011KT 6SM BR BKN005 OVC025
     FM190800 17005KT 2SM BR OVC003
     FM191700 17009KT 5SM BR SCT003 OVC050
     FM192200 19015G22KT 3SM BR OVC020=



000
FTUS46 KPQR 190404 AAA
TAFONP
TAF AMD
KONP 190404Z 1904/1924 19011KT 6SM BR SCT020 OVC040
      TEMPO 1904/1906 4SM BR SCT005 OVC025
     FM190600 16005KT 2SM BR OVC003
     FM191700 17009KT 5SM BR SCT003=



000
FTUS46 KPQR 190404 AAA
TAFONP
TAF AMD
KONP 190404Z 1904/1924 19011KT 6SM BR SCT020 OVC040
      TEMPO 1904/1906 4SM BR SCT005 OVC025
     FM190600 16005KT 2SM BR OVC003
     FM191700 17009KT 5SM BR SCT003=



000
FTUS46 KPQR 190404 AAA
TAFONP
TAF AMD
KONP 190404Z 1904/1924 19011KT 6SM BR SCT020 OVC040
      TEMPO 1904/1906 4SM BR SCT005 OVC025
     FM190600 16005KT 2SM BR OVC003
     FM191700 17009KT 5SM BR SCT003=



000
FTUS46 KPQR 190259 AAA
TAFPDX
TAF AMD
KPDX 190259Z 1903/1924 12004KT P6SM SCT080
     FM190900 VRB03KT 6SM BR SCT004 BKN025
     FM191300 00000KT 4SM BR SCT003 BKN025
     FM191900 10006KT P6SM SCT035=



000
FTUS46 KPQR 190259 AAA
TAFPDX
TAF AMD
KPDX 190259Z 1903/1924 12004KT P6SM SCT080
     FM190900 VRB03KT 6SM BR SCT004 BKN025
     FM191300 00000KT 4SM BR SCT003 BKN025
     FM191900 10006KT P6SM SCT035=



000
FTUS46 KPQR 182320
TAFPDX
TAF
KPDX 182320Z 1900/1924 11008KT P6SM FEW025 BKN060
     FM190000 12004KT P6SM SCT050
     FM191400 12005KT 6SM BR SCT004 BKN025
     FM191800 10006KT P6SM SCT035=



000
FTUS46 KPQR 182320
TAFONP
TAF
KONP 182320Z 1900/1924 19011KT 6SM BR SCT020 OVC040
      TEMPO 1901/1904 18006KT 4SM BR OVC025
     FM190400 16005KT 2SM BR OVC003
     FM191700 17009KT 5SM BR SCT003=



000
FTUS46 KPQR 182320
TAFHIO
TAF
KHIO 182320Z 1900/1924 15008KT P6SM BKN030 OVC060
     FM190000 VRB03KT P6SM FEW030 SCT050
     FM190600 18003KT P6SM OVC250
     FM191100 00000KT 2SM BR BKN025
     FM191400 00000KT 1/4SM FG VV002
     FM191800 16004KT 4SM BR SCT004=



000
FTUS46 KPQR 182320
TAFTTD
TAF
KTTD 182320Z 1900/1924 08007KT P6SM FEW030 OVC060
     FM190700 10010KT P6SM BKN140
     FM191800 08007KT P6SM SCT100=



000
FTUS46 KPQR 182320
TAFAST
TAF
KAST 182320Z 1900/1924 20009KT P6SM SCT020 BKN035
     FM190700 15005KT P6SM SCT005 BKN015
     FM191700 16008KT P6SM SCT015=



000
FTUS46 KPQR 182320
TAFTTD
TAF
KTTD 182320Z 1900/1924 08007KT P6SM FEW030 OVC060
     FM190700 10010KT P6SM BKN140
     FM191800 08007KT P6SM SCT100=



000
FTUS46 KPQR 182320
TAFONP
TAF
KONP 182320Z 1900/1924 19011KT 6SM BR SCT020 OVC040
      TEMPO 1901/1904 18006KT 4SM BR OVC025
     FM190400 16005KT 2SM BR OVC003
     FM191700 17009KT 5SM BR SCT003=



000
FTUS46 KPQR 182320
TAFHIO
TAF
KHIO 182320Z 1900/1924 15008KT P6SM BKN030 OVC060
     FM190000 VRB03KT P6SM FEW030 SCT050
     FM190600 18003KT P6SM OVC250
     FM191100 00000KT 2SM BR BKN025
     FM191400 00000KT 1/4SM FG VV002
     FM191800 16004KT 4SM BR SCT004=



000
FTUS46 KPQR 182320
TAFSLE
TAF
KSLE 182320Z 1900/1924 17010KT P6SM VCSH SCT050
     FM190000 VRB03KT P6SM SCT050
     FM191300 00000KT P6SM SCT003 OVC025
     FM191600 17006KT P6SM SCT025=



000
FTUS46 KPQR 182320
TAFEUG
TAF
KEUG 182320Z 1900/1924 19005KT P6SM FEW030 SCT050
     FM191100 VRB03KT 4SM BR OVC002
     FM191300 23004KT 1/2SM FG VV003
     FM191600 16004KT P6SM BKN008=



000
FTUS46 KPQR 182320
TAFAST
TAF
KAST 182320Z 1900/1924 20009KT P6SM SCT020 BKN035
     FM190700 15005KT P6SM SCT005 BKN015
     FM191700 16008KT P6SM SCT015=



000
FTUS46 KPQR 182320
TAFEUG
TAF
KEUG 182320Z 1900/1924 19005KT P6SM FEW030 SCT050
     FM191100 VRB03KT 4SM BR OVC002
     FM191300 23004KT 1/2SM FG VV003
     FM191600 16004KT P6SM BKN008=



000
FTUS46 KPQR 182320
TAFPDX
TAF
KPDX 182320Z 1900/1924 11008KT P6SM FEW025 BKN060
     FM190000 12004KT P6SM SCT050
     FM191400 12005KT 6SM BR SCT004 BKN025
     FM191800 10006KT P6SM SCT035=



000
FTUS46 KPQR 182320
TAFSLE
TAF
KSLE 182320Z 1900/1924 17010KT P6SM VCSH SCT050
     FM190000 VRB03KT P6SM SCT050
     FM191300 00000KT P6SM SCT003 OVC025
     FM191600 17006KT P6SM SCT025=



000
FTUS46 KPQR 182237 AAA
TAFAST
TAF AMD
KAST 182237Z 1823/1918 21011KT 3SM -RA BR BKN015 OVC030
     FM182330 20009KT P6SM SCT020 BKN035
     FM190700 15005KT P6SM SCT005 BKN015
     FM191700 16008KT P6SM SCT015=



000
FTUS46 KPQR 182237 AAA
TAFAST
TAF AMD
KAST 182237Z 1823/1918 21011KT 3SM -RA BR BKN015 OVC030
     FM182330 20009KT P6SM SCT020 BKN035
     FM190700 15005KT P6SM SCT005 BKN015
     FM191700 16008KT P6SM SCT015=



000
FTUS46 KPQR 182237 AAB
TAFHIO
TAF AMD
KHIO 182237Z 1823/1918 15008KT P6SM BKN018 BKN035 OVC070
     FM190000 VRB03KT P6SM FEW030 SCT050
     FM190600 18003KT P6SM OVC250
     FM191100 00000KT 2SM BR BKN025
     FM191400 00000KT 1/4SM FG VV002=



000
FTUS46 KPQR 182237 AAB
TAFHIO
TAF AMD
KHIO 182237Z 1823/1918 15008KT P6SM BKN018 BKN035 OVC070
     FM190000 VRB03KT P6SM FEW030 SCT050
     FM190600 18003KT P6SM OVC250
     FM191100 00000KT 2SM BR BKN025
     FM191400 00000KT 1/4SM FG VV002=



000
FTUS46 KPQR 182109 AAA
TAFPDX
TAF AMD
KPDX 182109Z 1821/1918 11008KT P6SM FEW020 BKN050
     FM190000 12004KT P6SM SCT050
     FM191400 12005KT P6SM SCT002 BKN025
     FM191700 10006KT P6SM SCT030=



000
FTUS46 KPQR 182109 AAA
TAFPDX
TAF AMD
KPDX 182109Z 1821/1918 11008KT P6SM FEW020 BKN050
     FM190000 12004KT P6SM SCT050
     FM191400 12005KT P6SM SCT002 BKN025
     FM191700 10006KT P6SM SCT030=



000
FTUS46 KPQR 182000 AAA
TAFHIO
TAF AMD
KHIO 182000Z 1820/1918 15008KT P6SM BKN018 BKN035 OVC070
     FM182200 VRB03KT P6SM FEW030 SCT050
     FM190600 18003KT P6SM OVC250
     FM191100 00000KT 2SM BR BKN025
     FM191400 00000KT 1/4SM FG VV002=



000
FTUS46 KPQR 182000 AAA
TAFHIO
TAF AMD
KHIO 182000Z 1820/1918 15008KT P6SM BKN018 BKN035 OVC070
     FM182200 VRB03KT P6SM FEW030 SCT050
     FM190600 18003KT P6SM OVC250
     FM191100 00000KT 2SM BR BKN025
     FM191400 00000KT 1/4SM FG VV002=



000
FTUS46 KPQR 182000 AAA
TAFHIO
TAF AMD
KHIO 182000Z 1820/1918 15008KT P6SM BKN018 BKN035 OVC070
     FM182200 VRB03KT P6SM FEW030 SCT050
     FM190600 18003KT P6SM OVC250
     FM191100 00000KT 2SM BR BKN025
     FM191400 00000KT 1/4SM FG VV002=



000
FTUS46 KPQR 182000 AAA
TAFHIO
TAF AMD
KHIO 182000Z 1820/1918 15008KT P6SM BKN018 BKN035 OVC070
     FM182200 VRB03KT P6SM FEW030 SCT050
     FM190600 18003KT P6SM OVC250
     FM191100 00000KT 2SM BR BKN025
     FM191400 00000KT 1/4SM FG VV002=



000
FTUS46 KPQR 181957 AAA
TAFONP
TAF AMD
KONP 181957Z 1820/1918 19011KT 6SM BR SCT008 OVC020
     FM190300 16005KT 2SM BR OVC003
     FM191700 17009KT 5SM BR SCT003=



000
FTUS46 KPQR 181957 AAA
TAFONP
TAF AMD
KONP 181957Z 1820/1918 19011KT 6SM BR SCT008 OVC020
     FM190300 16005KT 2SM BR OVC003
     FM191700 17009KT 5SM BR SCT003=



000
FTUS46 KPQR 181957 AAA
TAFONP
TAF AMD
KONP 181957Z 1820/1918 19011KT 6SM BR SCT008 OVC020
     FM190300 16005KT 2SM BR OVC003
     FM191700 17009KT 5SM BR SCT003=



000
FTUS46 KPQR 181957 AAA
TAFONP
TAF AMD
KONP 181957Z 1820/1918 19011KT 6SM BR SCT008 OVC020
     FM190300 16005KT 2SM BR OVC003
     FM191700 17009KT 5SM BR SCT003=



000
FTUS46 KPQR 181745 CCA
TAFAST
TAF COR
KAST 181745Z 1818/1918 18004KT P6SM -SHRA SCT008 BKN040
      TEMPO 1818/1819 5SM -RA BR OVC008
     FM181900 19008KT P6SM SCT020 BKN040
     FM190700 15005KT P6SM SCT005 BKN015
     FM191700 16008KT P6SM SCT015=



000
FTUS46 KPQR 181745 CCA
TAFAST
TAF COR
KAST 181745Z 1818/1918 18004KT P6SM -SHRA SCT008 BKN040
      TEMPO 1818/1819 5SM -RA BR OVC008
     FM181900 19008KT P6SM SCT020 BKN040
     FM190700 15005KT P6SM SCT005 BKN015
     FM191700 16008KT P6SM SCT015=



000
FTUS46 KPQR 181745 CCA
TAFAST
TAF COR
KAST 181745Z 1818/1918 18004KT P6SM -SHRA SCT008 BKN040
      TEMPO 1818/1819 5SM -RA BR OVC008
     FM181900 19008KT P6SM SCT020 BKN040
     FM190700 15005KT P6SM SCT005 BKN015
     FM191700 16008KT P6SM SCT015=



000
FTUS46 KPQR 181742
TAFAST
TAF
KAST 181742Z 1818/1918 18004KT P6SM -SHRA BKN040 OVC050
      TEMPO 1818/1819 5SM -RA BR OVC008
     FM181900 19008KT P6SM SCT020 BKN040
     FM190700 15005KT P6SM SCT005 BKN015
     FM191700 16008KT P6SM SCT015=



000
FTUS46 KPQR 181742
TAFPDX
TAF
KPDX 181742Z 1818/1918 13007KT P6SM VCSH SCT030 BKN050
     FM181900 14006KT P6SM FEW030 BKN050
     FM190000 12004KT P6SM SCT050
     FM191400 12005KT P6SM SCT002 BKN025
     FM191700 10006KT P6SM SCT030=



000
FTUS46 KPQR 181742
TAFTTD
TAF
KTTD 181742Z 1818/1918 09008KT P6SM VCSH SCT015 BKN035
     FM182300 08004KT P6SM FEW030 SCT050
     FM190700 10012KT P6SM SCT250=



000
FTUS46 KPQR 181742
TAFONP
TAF
KONP 181742Z 1818/1918 19011KT 5SM BR BKN004 OVC009
     FM182200 19007KT P6SM BKN009 OVC012
     FM190300 16005KT 2SM BR OVC003
     FM191700 17009KT 5SM BR SCT003=



000
FTUS46 KPQR 181742
TAFHIO
TAF
KHIO 181742Z 1818/1918 12003KT P6SM VCSH SCT020 BKN035 OVC050
     FM182000 17004KT P6SM FEW030 BKN050
     FM190000 VRB03KT P6SM FEW030 SCT050
     FM190600 18003KT P6SM OVC250
     FM191100 00000KT 2SM BR BKN025
     FM191400 00000KT 1/4SM FG VV002=



000
FTUS46 KPQR 181742
TAFEUG
TAF
KEUG 181742Z 1818/1918 18003KT P6SM OVC040
     FM182000 19005KT P6SM FEW030 SCT050
     FM190800 VRB03KT 4SM BR OVC002
     FM191100 23004KT 1/2SM FG VV003
     FM191600 16004KT P6SM BKN008=



000
FTUS46 KPQR 181742
TAFEUG
TAF
KEUG 181742Z 1818/1918 18003KT P6SM OVC040
     FM182000 19005KT P6SM FEW030 SCT050
     FM190800 VRB03KT 4SM BR OVC002
     FM191100 23004KT 1/2SM FG VV003
     FM191600 16004KT P6SM BKN008=



000
FTUS46 KPQR 181742
TAFSLE
TAF
KSLE 181742Z 1818/1918 17010KT P6SM VCSH SCT030 BKN050
      TEMPO 1818/1819 -RA BKN015
     FM190000 VRB03KT P6SM SCT050
     FM190900 00000KT P6SM SCT001 OVC025
     FM191600 17006KT P6SM SCT025=



000
FTUS46 KPQR 181742
TAFSLE
TAF
KSLE 181742Z 1818/1918 17010KT P6SM VCSH SCT030 BKN050
      TEMPO 1818/1819 -RA BKN015
     FM190000 VRB03KT P6SM SCT050
     FM190900 00000KT P6SM SCT001 OVC025
     FM191600 17006KT P6SM SCT025=



000
FTUS46 KPQR 181742
TAFHIO
TAF
KHIO 181742Z 1818/1918 12003KT P6SM VCSH SCT020 BKN035 OVC050
     FM182000 17004KT P6SM FEW030 BKN050
     FM190000 VRB03KT P6SM FEW030 SCT050
     FM190600 18003KT P6SM OVC250
     FM191100 00000KT 2SM BR BKN025
     FM191400 00000KT 1/4SM FG VV002=



000
FTUS46 KPQR 181742
TAFAST
TAF
KAST 181742Z 1818/1918 18004KT P6SM -SHRA BKN040 OVC050
      TEMPO 1818/1819 5SM -RA BR OVC008
     FM181900 19008KT P6SM SCT020 BKN040
     FM190700 15005KT P6SM SCT005 BKN015
     FM191700 16008KT P6SM SCT015=



000
FTUS46 KPQR 181742
TAFPDX
TAF
KPDX 181742Z 1818/1918 13007KT P6SM VCSH SCT030 BKN050
     FM181900 14006KT P6SM FEW030 BKN050
     FM190000 12004KT P6SM SCT050
     FM191400 12005KT P6SM SCT002 BKN025
     FM191700 10006KT P6SM SCT030=



000
FTUS46 KPQR 181742
TAFTTD
TAF
KTTD 181742Z 1818/1918 09008KT P6SM VCSH SCT015 BKN035
     FM182300 08004KT P6SM FEW030 SCT050
     FM190700 10012KT P6SM SCT250=



000
FTUS46 KPQR 181742
TAFONP
TAF
KONP 181742Z 1818/1918 19011KT 5SM BR BKN004 OVC009
     FM182200 19007KT P6SM BKN009 OVC012
     FM190300 16005KT 2SM BR OVC003
     FM191700 17009KT 5SM BR SCT003=



000
FTUS46 KPQR 181742
TAFTTD
TAF
KTTD 181742Z 1818/1918 09008KT P6SM VCSH SCT015 BKN035
     FM182300 08004KT P6SM FEW030 SCT050
     FM190700 10012KT P6SM SCT250=



000
FTUS46 KPQR 181742
TAFPDX
TAF
KPDX 181742Z 1818/1918 13007KT P6SM VCSH SCT030 BKN050
     FM181900 14006KT P6SM FEW030 BKN050
     FM190000 12004KT P6SM SCT050
     FM191400 12005KT P6SM SCT002 BKN025
     FM191700 10006KT P6SM SCT030=



000
FTUS46 KPQR 181742
TAFSLE
TAF
KSLE 181742Z 1818/1918 17010KT P6SM VCSH SCT030 BKN050
      TEMPO 1818/1819 -RA BKN015
     FM190000 VRB03KT P6SM SCT050
     FM190900 00000KT P6SM SCT001 OVC025
     FM191600 17006KT P6SM SCT025=



000
FTUS46 KPQR 181742
TAFHIO
TAF
KHIO 181742Z 1818/1918 12003KT P6SM VCSH SCT020 BKN035 OVC050
     FM182000 17004KT P6SM FEW030 BKN050
     FM190000 VRB03KT P6SM FEW030 SCT050
     FM190600 18003KT P6SM OVC250
     FM191100 00000KT 2SM BR BKN025
     FM191400 00000KT 1/4SM FG VV002=



000
FTUS46 KPQR 181742
TAFONP
TAF
KONP 181742Z 1818/1918 19011KT 5SM BR BKN004 OVC009
     FM182200 19007KT P6SM BKN009 OVC012
     FM190300 16005KT 2SM BR OVC003
     FM191700 17009KT 5SM BR SCT003=



000
FTUS46 KPQR 181742
TAFAST
TAF
KAST 181742Z 1818/1918 18004KT P6SM -SHRA BKN040 OVC050
      TEMPO 1818/1819 5SM -RA BR OVC008
     FM181900 19008KT P6SM SCT020 BKN040
     FM190700 15005KT P6SM SCT005 BKN015
     FM191700 16008KT P6SM SCT015=



000
FTUS46 KPQR 181742
TAFEUG
TAF
KEUG 181742Z 1818/1918 18003KT P6SM OVC040
     FM182000 19005KT P6SM FEW030 SCT050
     FM190800 VRB03KT 4SM BR OVC002
     FM191100 23004KT 1/2SM FG VV003
     FM191600 16004KT P6SM BKN008=



000
FTUS46 KPQR 181742
TAFAST
TAF
KAST 181742Z 1818/1918 18004KT P6SM -SHRA BKN040 OVC050
      TEMPO 1818/1819 5SM -RA BR OVC008
     FM181900 19008KT P6SM SCT020 BKN040
     FM190700 15005KT P6SM SCT005 BKN015
     FM191700 16008KT P6SM SCT015=



000
FTUS46 KPQR 181742
TAFHIO
TAF
KHIO 181742Z 1818/1918 12003KT P6SM VCSH SCT020 BKN035 OVC050
     FM182000 17004KT P6SM FEW030 BKN050
     FM190000 VRB03KT P6SM FEW030 SCT050
     FM190600 18003KT P6SM OVC250
     FM191100 00000KT 2SM BR BKN025
     FM191400 00000KT 1/4SM FG VV002=



000
FTUS46 KPQR 181742
TAFEUG
TAF
KEUG 181742Z 1818/1918 18003KT P6SM OVC040
     FM182000 19005KT P6SM FEW030 SCT050
     FM190800 VRB03KT 4SM BR OVC002
     FM191100 23004KT 1/2SM FG VV003
     FM191600 16004KT P6SM BKN008=



000
FTUS46 KPQR 181742
TAFONP
TAF
KONP 181742Z 1818/1918 19011KT 5SM BR BKN004 OVC009
     FM182200 19007KT P6SM BKN009 OVC012
     FM190300 16005KT 2SM BR OVC003
     FM191700 17009KT 5SM BR SCT003=



000
FTUS46 KPQR 181742
TAFPDX
TAF
KPDX 181742Z 1818/1918 13007KT P6SM VCSH SCT030 BKN050
     FM181900 14006KT P6SM FEW030 BKN050
     FM190000 12004KT P6SM SCT050
     FM191400 12005KT P6SM SCT002 BKN025
     FM191700 10006KT P6SM SCT030=



000
FTUS46 KPQR 181742
TAFTTD
TAF
KTTD 181742Z 1818/1918 09008KT P6SM VCSH SCT015 BKN035
     FM182300 08004KT P6SM FEW030 SCT050
     FM190700 10012KT P6SM SCT250=



000
FTUS46 KPQR 181742
TAFSLE
TAF
KSLE 181742Z 1818/1918 17010KT P6SM VCSH SCT030 BKN050
      TEMPO 1818/1819 -RA BKN015
     FM190000 VRB03KT P6SM SCT050
     FM190900 00000KT P6SM SCT001 OVC025
     FM191600 17006KT P6SM SCT025=



000
FTUS46 KPQR 181659 AAA
TAFSLE
TAF AMD
KSLE 181659Z 1817/1912 17010KT P6SM VCSH SCT030 BKN050
      TEMPO 1817/1818 -RA BKN015
     FM190000 VRB03KT P6SM SCT050
     FM190900 00000KT P6SM OVC004=



000
FTUS46 KPQR 181659 AAA
TAFSLE
TAF AMD
KSLE 181659Z 1817/1912 17010KT P6SM VCSH SCT030 BKN050
      TEMPO 1817/1818 -RA BKN015
     FM190000 VRB03KT P6SM SCT050
     FM190900 00000KT P6SM OVC004=



000
FTUS46 KPQR 181659 AAA
TAFSLE
TAF AMD
KSLE 181659Z 1817/1912 17010KT P6SM VCSH SCT030 BKN050
      TEMPO 1817/1818 -RA BKN015
     FM190000 VRB03KT P6SM SCT050
     FM190900 00000KT P6SM OVC004=



000
FTUS46 KPQR 181659 AAA
TAFSLE
TAF AMD
KSLE 181659Z 1817/1912 17010KT P6SM VCSH SCT030 BKN050
      TEMPO 1817/1818 -RA BKN015
     FM190000 VRB03KT P6SM SCT050
     FM190900 00000KT P6SM OVC004=



000
FTUS46 KPQR 181650 AAD
TAFPDX
TAF AMD
KPDX 181650Z 1817/1912 13007KT P6SM VCSH SCT030 BKN050
     FM181800 14006KT P6SM FEW030 BKN050
     FM190000 12004KT P6SM SCT050
     FM190900 12005KT P6SM SCT002 SCT250=



000
FTUS46 KPQR 181650 AAD
TAFPDX
TAF AMD
KPDX 181650Z 1817/1912 13007KT P6SM VCSH SCT030 BKN050
     FM181800 14006KT P6SM FEW030 BKN050
     FM190000 12004KT P6SM SCT050
     FM190900 12005KT P6SM SCT002 SCT250=



000
FTUS46 KPQR 181650 AAD
TAFPDX
TAF AMD
KPDX 181650Z 1817/1912 13007KT P6SM VCSH SCT030 BKN050
     FM181800 14006KT P6SM FEW030 BKN050
     FM190000 12004KT P6SM SCT050
     FM190900 12005KT P6SM SCT002 SCT250=



000
FTUS46 KPQR 181650 AAD
TAFPDX
TAF AMD
KPDX 181650Z 1817/1912 13007KT P6SM VCSH SCT030 BKN050
     FM181800 14006KT P6SM FEW030 BKN050
     FM190000 12004KT P6SM SCT050
     FM190900 12005KT P6SM SCT002 SCT250=



000
FTUS46 KPQR 181647 AAB
TAFAST
TAF AMD
KAST 181647Z 1817/1912 18004KT P6SM -SHRA BKN040 OVC050
      TEMPO 1817/1818 5SM -RA BR OVC008
     FM181900 19008KT P6SM SCT020 BKN040
     FM190700 15005KT P6SM OVC005=



000
FTUS46 KPQR 181647 AAB
TAFAST
TAF AMD
KAST 181647Z 1817/1912 18004KT P6SM -SHRA BKN040 OVC050
      TEMPO 1817/1818 5SM -RA BR OVC008
     FM181900 19008KT P6SM SCT020 BKN040
     FM190700 15005KT P6SM OVC005=



000
FTUS46 KPQR 181647 AAB
TAFAST
TAF AMD
KAST 181647Z 1817/1912 18004KT P6SM -SHRA BKN040 OVC050
      TEMPO 1817/1818 5SM -RA BR OVC008
     FM181900 19008KT P6SM SCT020 BKN040
     FM190700 15005KT P6SM OVC005=



000
FTUS46 KPQR 181647 AAB
TAFAST
TAF AMD
KAST 181647Z 1817/1912 18004KT P6SM -SHRA BKN040 OVC050
      TEMPO 1817/1818 5SM -RA BR OVC008
     FM181900 19008KT P6SM SCT020 BKN040
     FM190700 15005KT P6SM OVC005=



000
FTUS46 KPQR 181507 AAA
TAFTTD
TAF AMD
KTTD 181507Z 1815/1912 09008KT P6SM VCSH SCT015 BKN035
     FM182300 08004KT P6SM FEW030 SCT050
     FM190700 10012KT P6SM SCT250=



000
FTUS46 KPQR 181507 AAA
TAFTTD
TAF AMD
KTTD 181507Z 1815/1912 09008KT P6SM VCSH SCT015 BKN035
     FM182300 08004KT P6SM FEW030 SCT050
     FM190700 10012KT P6SM SCT250=



000
FTUS46 KPQR 181506 AAC
TAFPDX
TAF AMD
KPDX 181506Z 1815/1912 13007KT P6SM VCSH FEW005 OVC035
     FM181800 14006KT P6SM FEW030 BKN050
     FM190000 12004KT P6SM SCT050
     FM190900 12005KT P6SM SCT002 SCT250=



000
FTUS46 KPQR 181506 AAC
TAFPDX
TAF AMD
KPDX 181506Z 1815/1912 13007KT P6SM VCSH FEW005 OVC035
     FM181800 14006KT P6SM FEW030 BKN050
     FM190000 12004KT P6SM SCT050
     FM190900 12005KT P6SM SCT002 SCT250=



000
FTUS46 KPQR 181444 AAA
TAFHIO
TAF AMD
KHIO 181444Z 1815/1912 12003KT P6SM VCSH SCT020 BKN035 OVC050
     FM182000 17004KT P6SM FEW030 BKN050
     FM190000 VRB03KT P6SM FEW030 SCT050
     FM190600 18003KT P6SM OVC250=



000
FTUS46 KPQR 181444 AAA
TAFHIO
TAF AMD
KHIO 181444Z 1815/1912 12003KT P6SM VCSH SCT020 BKN035 OVC050
     FM182000 17004KT P6SM FEW030 BKN050
     FM190000 VRB03KT P6SM FEW030 SCT050
     FM190600 18003KT P6SM OVC250=



000
FTUS46 KPQR 181444 AAA
TAFHIO
TAF AMD
KHIO 181444Z 1815/1912 12003KT P6SM VCSH SCT020 BKN035 OVC050
     FM182000 17004KT P6SM FEW030 BKN050
     FM190000 VRB03KT P6SM FEW030 SCT050
     FM190600 18003KT P6SM OVC250=



000
FTUS46 KPQR 181444 AAA
TAFHIO
TAF AMD
KHIO 181444Z 1815/1912 12003KT P6SM VCSH SCT020 BKN035 OVC050
     FM182000 17004KT P6SM FEW030 BKN050
     FM190000 VRB03KT P6SM FEW030 SCT050
     FM190600 18003KT P6SM OVC250=



000
FTUS46 KPQR 181443 AAB
TAFPDX
TAF AMD
KPDX 181443Z 1815/1912 13007KT P6SM VCSH FEW005 OVC025
     FM181800 14006KT P6SM FEW030 BKN050
     FM190000 12004KT P6SM SCT050
     FM190900 12005KT P6SM SCT002 SCT250=



000
FTUS46 KPQR 181443 AAB
TAFPDX
TAF AMD
KPDX 181443Z 1815/1912 13007KT P6SM VCSH FEW005 OVC025
     FM181800 14006KT P6SM FEW030 BKN050
     FM190000 12004KT P6SM SCT050
     FM190900 12005KT P6SM SCT002 SCT250=



000
FTUS46 KPQR 181443 AAB
TAFPDX
TAF AMD
KPDX 181443Z 1815/1912 13007KT P6SM VCSH FEW005 OVC025
     FM181800 14006KT P6SM FEW030 BKN050
     FM190000 12004KT P6SM SCT050
     FM190900 12005KT P6SM SCT002 SCT250=



000
FTUS46 KPQR 181443 AAB
TAFPDX
TAF AMD
KPDX 181443Z 1815/1912 13007KT P6SM VCSH FEW005 OVC025
     FM181800 14006KT P6SM FEW030 BKN050
     FM190000 12004KT P6SM SCT050
     FM190900 12005KT P6SM SCT002 SCT250=



000
FTUS46 KPQR 181351 AAA
TAFPDX
TAF AMD
KPDX 181351Z 1814/1912 13007KT P6SM VCSH FEW005 OVC035
     FM181800 14006KT P6SM FEW030 BKN050
     FM190000 12004KT P6SM SCT050
     FM190900 12005KT P6SM SCT002 SCT250=



000
FTUS46 KPQR 181350 AAA
TAFAST
TAF AMD
KAST 181350Z 1814/1912 18004KT P6SM -SHRA BKN040 OVC050
     FM181900 19008KT P6SM SCT020 BKN040
     FM190700 15005KT P6SM OVC005=



000
FTUS46 KPQR 181120
TAFPDX
TAF
KPDX 181120Z 1812/1912 11010KT P6SM VCSH BKN030 OVC050
      TEMPO 1813/1816 BKN015
     FM181800 14006KT P6SM FEW030 BKN050
     FM190000 12004KT P6SM SCT050
     FM190900 12005KT P6SM SCT002 SCT250=



000
FTUS46 KPQR 181120
TAFSLE
TAF
KSLE 181120Z 1812/1912 VRB03KT P6SM VCSH OVC035
     FM181600 17005KT P6SM SCT030 BKN050
     FM190000 VRB03KT P6SM SCT050
     FM190900 00000KT P6SM OVC004=



000
FTUS46 KPQR 181120
TAFTTD
TAF
KTTD 181120Z 1812/1912 08012KT 6SM -SHRA BR BKN025 OVC035
     FM181400 09010KT P6SM VCSH SCT015 BKN030 OVC040
     FM182300 08004KT P6SM FEW030 SCT050
     FM190700 10012KT P6SM SCT250=



000
FTUS46 KPQR 181120
TAFPDX
TAF
KPDX 181120Z 1812/1912 11010KT P6SM VCSH BKN030 OVC050
      TEMPO 1813/1816 BKN015
     FM181800 14006KT P6SM FEW030 BKN050
     FM190000 12004KT P6SM SCT050
     FM190900 12005KT P6SM SCT002 SCT250=



000
FTUS46 KPQR 181120
TAFHIO
TAF
KHIO 181120Z 1812/1912 12003KT P6SM VCSH SCT020 BKN035 OVC050
      TEMPO 1813/1816 BKN015
     FM182000 17004KT P6SM FEW030 BKN050
     FM190000 VRB03KT P6SM FEW030 SCT050
     FM190600 18003KT P6SM OVC250=



000
FTUS46 KPQR 181120
TAFONP
TAF
KONP 181120Z 1812/1912 19015G25KT 3SM -SHRA BR OVC004
     FM181500 19011KT 5SM BR BKN004 OVC009
     FM182200 19007KT P6SM BKN009 OVC012
     FM190300 16005KT 2SM BR OVC003=



000
FTUS46 KPQR 181120
TAFPDX
TAF
KPDX 181120Z 1812/1912 11010KT P6SM VCSH BKN030 OVC050
      TEMPO 1813/1816 BKN015
     FM181800 14006KT P6SM FEW030 BKN050
     FM190000 12004KT P6SM SCT050
     FM190900 12005KT P6SM SCT002 SCT250=



000
FTUS46 KPQR 181120
TAFONP
TAF
KONP 181120Z 1812/1912 19015G25KT 3SM -SHRA BR OVC004
     FM181500 19011KT 5SM BR BKN004 OVC009
     FM182200 19007KT P6SM BKN009 OVC012
     FM190300 16005KT 2SM BR OVC003=



000
FTUS46 KPQR 181120
TAFAST
TAF
KAST 181120Z 1812/1912 19008KT 3SM -SHRA BR BKN009 OVC014
     FM181900 19008KT P6SM SCT020 BKN040
     FM190700 15005KT P6SM OVC005=



000
FTUS46 KPQR 181120
TAFHIO
TAF
KHIO 181120Z 1812/1912 12003KT P6SM VCSH SCT020 BKN035 OVC050
      TEMPO 1813/1816 BKN015
     FM182000 17004KT P6SM FEW030 BKN050
     FM190000 VRB03KT P6SM FEW030 SCT050
     FM190600 18003KT P6SM OVC250=



000
FTUS46 KPQR 181120
TAFTTD
TAF
KTTD 181120Z 1812/1912 08012KT 6SM -SHRA BR BKN025 OVC035
     FM181400 09010KT P6SM VCSH SCT015 BKN030 OVC040
     FM182300 08004KT P6SM FEW030 SCT050
     FM190700 10012KT P6SM SCT250=



000
FTUS46 KPQR 181120
TAFEUG
TAF
KEUG 181120Z 1812/1912 18003KT P6SM OVC040
     FM182000 19005KT P6SM FEW030 SCT050
     FM191000 VRB03KT 4SM BR OVC002=



000
FTUS46 KPQR 181120
TAFSLE
TAF
KSLE 181120Z 1812/1912 VRB03KT P6SM VCSH OVC035
     FM181600 17005KT P6SM SCT030 BKN050
     FM190000 VRB03KT P6SM SCT050
     FM190900 00000KT P6SM OVC004=



000
FTUS46 KPQR 181120
TAFAST
TAF
KAST 181120Z 1812/1912 19008KT 3SM -SHRA BR BKN009 OVC014
     FM181900 19008KT P6SM SCT020 BKN040
     FM190700 15005KT P6SM OVC005=



000
FTUS46 KPQR 181120
TAFPDX
TAF
KPDX 181120Z 1812/1912 11010KT P6SM VCSH BKN030 OVC050
      TEMPO 1813/1816 BKN015
     FM181800 14006KT P6SM FEW030 BKN050
     FM190000 12004KT P6SM SCT050
     FM190900 12005KT P6SM SCT002 SCT250=



000
FTUS46 KPQR 181120
TAFONP
TAF
KONP 181120Z 1812/1912 19015G25KT 3SM -SHRA BR OVC004
     FM181500 19011KT 5SM BR BKN004 OVC009
     FM182200 19007KT P6SM BKN009 OVC012
     FM190300 16005KT 2SM BR OVC003=



000
FTUS46 KPQR 181120
TAFSLE
TAF
KSLE 181120Z 1812/1912 VRB03KT P6SM VCSH OVC035
     FM181600 17005KT P6SM SCT030 BKN050
     FM190000 VRB03KT P6SM SCT050
     FM190900 00000KT P6SM OVC004=



000
FTUS46 KPQR 181120
TAFHIO
TAF
KHIO 181120Z 1812/1912 12003KT P6SM VCSH SCT020 BKN035 OVC050
      TEMPO 1813/1816 BKN015
     FM182000 17004KT P6SM FEW030 BKN050
     FM190000 VRB03KT P6SM FEW030 SCT050
     FM190600 18003KT P6SM OVC250=



000
FTUS46 KPQR 181120
TAFTTD
TAF
KTTD 181120Z 1812/1912 08012KT 6SM -SHRA BR BKN025 OVC035
     FM181400 09010KT P6SM VCSH SCT015 BKN030 OVC040
     FM182300 08004KT P6SM FEW030 SCT050
     FM190700 10012KT P6SM SCT250=



000
FTUS46 KPQR 181120
TAFEUG
TAF
KEUG 181120Z 1812/1912 18003KT P6SM OVC040
     FM182000 19005KT P6SM FEW030 SCT050
     FM191000 VRB03KT 4SM BR OVC002=



000
FTUS46 KPQR 181120
TAFEUG
TAF
KEUG 181120Z 1812/1912 18003KT P6SM OVC040
     FM182000 19005KT P6SM FEW030 SCT050
     FM191000 VRB03KT 4SM BR OVC002=



000
FTUS46 KPQR 181120
TAFTTD
TAF
KTTD 181120Z 1812/1912 08012KT 6SM -SHRA BR BKN025 OVC035
     FM181400 09010KT P6SM VCSH SCT015 BKN030 OVC040
     FM182300 08004KT P6SM FEW030 SCT050
     FM190700 10012KT P6SM SCT250=



000
FTUS46 KPQR 181120
TAFSLE
TAF
KSLE 181120Z 1812/1912 VRB03KT P6SM VCSH OVC035
     FM181600 17005KT P6SM SCT030 BKN050
     FM190000 VRB03KT P6SM SCT050
     FM190900 00000KT P6SM OVC004=



000
FTUS46 KPQR 181120
TAFAST
TAF
KAST 181120Z 1812/1912 19008KT 3SM -SHRA BR BKN009 OVC014
     FM181900 19008KT P6SM SCT020 BKN040
     FM190700 15005KT P6SM OVC005=



000
FTUS46 KPQR 181120
TAFEUG
TAF
KEUG 181120Z 1812/1912 18003KT P6SM OVC040
     FM182000 19005KT P6SM FEW030 SCT050
     FM191000 VRB03KT 4SM BR OVC002=



000
FTUS46 KPQR 181120
TAFHIO
TAF
KHIO 181120Z 1812/1912 12003KT P6SM VCSH SCT020 BKN035 OVC050
      TEMPO 1813/1816 BKN015
     FM182000 17004KT P6SM FEW030 BKN050
     FM190000 VRB03KT P6SM FEW030 SCT050
     FM190600 18003KT P6SM OVC250=



000
FTUS46 KPQR 181120
TAFONP
TAF
KONP 181120Z 1812/1912 19015G25KT 3SM -SHRA BR OVC004
     FM181500 19011KT 5SM BR BKN004 OVC009
     FM182200 19007KT P6SM BKN009 OVC012
     FM190300 16005KT 2SM BR OVC003=



000
FTUS46 KPQR 181120
TAFAST
TAF
KAST 181120Z 1812/1912 19008KT 3SM -SHRA BR BKN009 OVC014
     FM181900 19008KT P6SM SCT020 BKN040
     FM190700 15005KT P6SM OVC005=



000
FTUS46 KPQR 181020 AAA
TAFONP
TAF AMD
KONP 181020Z 1810/1906 19015G25KT 2SM -SHRA BR OVC004
     FM181500 18007KT 5SM BR BKN035 BKN050=



000
FTUS46 KPQR 181020 AAA
TAFONP
TAF AMD
KONP 181020Z 1810/1906 19015G25KT 2SM -SHRA BR OVC004
     FM181500 18007KT 5SM BR BKN035 BKN050=



000
FTUS46 KPQR 181019 AAA
TAFAST
TAF AMD
KAST 181019Z 1810/1906 19008KT 3SM -SHRA BR BKN009 OVC014
     FM181200 20007KT P6SM SCT025 BKN040
     FM182100 18005KT P6SM SCT040=



000
FTUS46 KPQR 181019 AAA
TAFAST
TAF AMD
KAST 181019Z 1810/1906 19008KT 3SM -SHRA BR BKN009 OVC014
     FM181200 20007KT P6SM SCT025 BKN040
     FM182100 18005KT P6SM SCT040=



000
FTUS46 KPQR 180855 AAA
TAFPDX
TAF AMD
KPDX 180855Z 1809/1906 11010KT P6SM BKN015 OVC030
     FM181900 14006KT P6SM FEW030 BKN050
     FM190000 13004KT P6SM SCT050=



000
FTUS46 KPQR 180855 AAA
TAFPDX
TAF AMD
KPDX 180855Z 1809/1906 11010KT P6SM BKN015 OVC030
     FM181900 14006KT P6SM FEW030 BKN050
     FM190000 13004KT P6SM SCT050=



000
FTUS46 KPQR 180520
TAFAST
TAF
KAST 180520Z 1806/1906 20012G20KT 5SM -RA BR BKN008 OVC015
     FM180800 22008KT P6SM -SHRA SCT012 BKN025
     FM181200 20007KT P6SM SCT025 BKN040
     FM182100 18005KT P6SM SCT040=



000
FTUS46 KPQR 180520
TAFHIO
TAF
KHIO 180520Z 1806/1906 14008KT 6SM -SHRA BKN015 OVC030
     FM181100 17005KT P6SM SCT030 BKN050
     FM182100 18004KT P6SM FEW030 SCT050=



000
FTUS46 KPQR 180520
TAFONP
TAF
KONP 180520Z 1806/1906 19013G21KT 5SM -RA BR SCT008 BKN015 OVC030
      TEMPO 1806/1808 3SM BR BKN005 OVC015
     FM180800 19010KT 4SM -SHRA BR SCT015 BKN030
     FM181500 18007KT 5SM BR BKN035 BKN050=



000
FTUS46 KPQR 180520
TAFSLE
TAF
KSLE 180520Z 1806/1906 17006KT 4SM -SHRA BKN030 OVC050
     FM180900 17005KT P6SM SCT030 BKN050
     FM182100 18004KT P6SM FEW030 SCT050=



000
FTUS46 KPQR 180520
TAFTTD
TAF
KTTD 180520Z 1806/1906 10009KT 6SM -SHRA SCT030 OVC050
     FM180900 10005KT P6SM FEW030 BKN050
     FM182100 18004KT P6SM FEW030 SCT050=



000
FTUS46 KPQR 180520
TAFEUG
TAF
KEUG 180520Z 1806/1906 19008KT P6SM -SHRA OVC040
     FM181200 19006KT P6SM SCT030 OVC050
     FM182100 18004KT P6SM FEW030 SCT050=



000
FTUS46 KPQR 180520
TAFPDX
TAF
KPDX 180520Z 1806/1906 10008KT 6SM -RA BKN030 OVC050
     FM180900 10005KT P6SM SCT030 BKN050
     FM182100 18004KT P6SM FEW030 SCT050=



000
FTUS46 KPQR 180520
TAFHIO
TAF
KHIO 180520Z 1806/1906 14008KT 6SM -SHRA BKN015 OVC030
     FM181100 17005KT P6SM SCT030 BKN050
     FM182100 18004KT P6SM FEW030 SCT050=



000
FTUS46 KPQR 180520
TAFEUG
TAF
KEUG 180520Z 1806/1906 19008KT P6SM -SHRA OVC040
     FM181200 19006KT P6SM SCT030 OVC050
     FM182100 18004KT P6SM FEW030 SCT050=



000
FTUS46 KPQR 180520
TAFONP
TAF
KONP 180520Z 1806/1906 19013G21KT 5SM -RA BR SCT008 BKN015 OVC030
      TEMPO 1806/1808 3SM BR BKN005 OVC015
     FM180800 19010KT 4SM -SHRA BR SCT015 BKN030
     FM181500 18007KT 5SM BR BKN035 BKN050=



000
FTUS46 KPQR 180520
TAFSLE
TAF
KSLE 180520Z 1806/1906 17006KT 4SM -SHRA BKN030 OVC050
     FM180900 17005KT P6SM SCT030 BKN050
     FM182100 18004KT P6SM FEW030 SCT050=



000
FTUS46 KPQR 180520
TAFPDX
TAF
KPDX 180520Z 1806/1906 10008KT 6SM -RA BKN030 OVC050
     FM180900 10005KT P6SM SCT030 BKN050
     FM182100 18004KT P6SM FEW030 SCT050=



000
FTUS46 KPQR 180520
TAFAST
TAF
KAST 180520Z 1806/1906 20012G20KT 5SM -RA BR BKN008 OVC015
     FM180800 22008KT P6SM -SHRA SCT012 BKN025
     FM181200 20007KT P6SM SCT025 BKN040
     FM182100 18005KT P6SM SCT040=



000
FTUS46 KPQR 180520
TAFTTD
TAF
KTTD 180520Z 1806/1906 10009KT 6SM -SHRA SCT030 OVC050
     FM180900 10005KT P6SM FEW030 BKN050
     FM182100 18004KT P6SM FEW030 SCT050=



000
FTUS46 KPQR 180408 AAB
TAFONP
TAF AMD
KONP 180408Z 1804/1824 19013G21KT 5SM -RA BR SCT008 BKN015 OVC030
      TEMPO 1804/1808 BKN008 OVC015
     FM180800 19010KT 4SM -SHRA BR SCT015 BKN030
     FM181500 18007KT 5SM BR BKN035 BKN050=



000
FTUS46 KPQR 180408 AAB
TAFONP
TAF AMD
KONP 180408Z 1804/1824 19013G21KT 5SM -RA BR SCT008 BKN015 OVC030
      TEMPO 1804/1808 BKN008 OVC015
     FM180800 19010KT 4SM -SHRA BR SCT015 BKN030
     FM181500 18007KT 5SM BR BKN035 BKN050=



000
FTUS46 KPQR 180407 AAB
TAFSLE
TAF AMD
KSLE 180407Z 1804/1824 VRB04KT P6SM -RA BKN050 OVC100
     FM180600 17006KT 6SM -SHRA BKN030 OVC050
     FM180900 17005KT P6SM SCT030 BKN050
     FM182100 18004KT P6SM FEW030 SCT050=



000
FTUS46 KPQR 180407 AAB
TAFSLE
TAF AMD
KSLE 180407Z 1804/1824 VRB04KT P6SM -RA BKN050 OVC100
     FM180600 17006KT 6SM -SHRA BKN030 OVC050
     FM180900 17005KT P6SM SCT030 BKN050
     FM182100 18004KT P6SM FEW030 SCT050=



000
FTUS46 KPQR 180407 AAC
TAFHIO
TAF AMD
KHIO 180407Z 1804/1824 10005KT 6SM -RA BR BKN030 OVC050
     FM180600 14008KT 6SM -SHRA SCT010 BKN030 OVC050
     FM181100 17005KT P6SM SCT030 BKN050
     FM182100 18004KT P6SM FEW030 SCT050=



000
FTUS46 KPQR 180407 AAC
TAFHIO
TAF AMD
KHIO 180407Z 1804/1824 10005KT 6SM -RA BR BKN030 OVC050
     FM180600 14008KT 6SM -SHRA SCT010 BKN030 OVC050
     FM181100 17005KT P6SM SCT030 BKN050
     FM182100 18004KT P6SM FEW030 SCT050=



000
FTUS46 KPQR 180407 AAB
TAFTTD
TAF AMD
KTTD 180407Z 1804/1824 10009KT 6SM -SHRA SCT030 OVC050
     FM180900 10005KT P6SM FEW030 BKN050
     FM182100 18004KT P6SM FEW030 SCT050=



000
FTUS46 KPQR 180407 AAB
TAFTTD
TAF AMD
KTTD 180407Z 1804/1824 10009KT 6SM -SHRA SCT030 OVC050
     FM180900 10005KT P6SM FEW030 BKN050
     FM182100 18004KT P6SM FEW030 SCT050=



000
FTUS46 KPQR 180406 AAB
TAFHIO
TAF AMD
KHIO 180406Z 1804/1824 10005KT 6SM -RA BR BKN030 OVC050
     FM180600 14008KT 6SM -RA SCT010 BKN030 OVC050
     FM181100 17005KT P6SM SCT030 BKN050
     FM182100 18004KT P6SM FEW030 SCT050=



000
FTUS46 KPQR 180406 AAB
TAFHIO
TAF AMD
KHIO 180406Z 1804/1824 10005KT 6SM -RA BR BKN030 OVC050
     FM180600 14008KT 6SM -RA SCT010 BKN030 OVC050
     FM181100 17005KT P6SM SCT030 BKN050
     FM182100 18004KT P6SM FEW030 SCT050=



000
FTUS46 KPQR 180405 AAB
TAFPDX
TAF AMD
KPDX 180405Z 1804/1824 10009KT P6SM -RA BKN050 OVC100
     FM180600 10008KT 6SM -RA BKN030 OVC050
     FM180900 10005KT P6SM SCT030 BKN050
     FM182100 18004KT P6SM FEW030 SCT050=



000
FTUS46 KPQR 180405 AAB
TAFPDX
TAF AMD
KPDX 180405Z 1804/1824 10009KT P6SM -RA BKN050 OVC100
     FM180600 10008KT 6SM -RA BKN030 OVC050
     FM180900 10005KT P6SM SCT030 BKN050
     FM182100 18004KT P6SM FEW030 SCT050=



000
FTUS46 KPQR 180404 AAB
TAFAST
TAF AMD
KAST 180404Z 1804/1824 20012G20KT 5SM -RA BR BKN008 OVC012
     FM180800 22008KT P6SM -SHRA SCT012 BKN025
     FM181200 20007KT P6SM SCT025 BKN040
     FM182100 18005KT P6SM SCT040=



000
FTUS46 KPQR 180404 AAB
TAFAST
TAF AMD
KAST 180404Z 1804/1824 20012G20KT 5SM -RA BR BKN008 OVC012
     FM180800 22008KT P6SM -SHRA SCT012 BKN025
     FM181200 20007KT P6SM SCT025 BKN040
     FM182100 18005KT P6SM SCT040=



000
FTUS46 KPQR 180211 AAA
TAFAST
TAF AMD
KAST 180211Z 1802/1824 20012G25KT P6SM -RADZ BKN010 OVC025
     FM180400 22008KT P6SM -SHRA SCT012 BKN025
     FM181200 20007KT P6SM SCT025 BKN040
     FM182100 18005KT P6SM SCT040=



000
FTUS46 KPQR 180209 AAB
TAFEUG
TAF AMD
KEUG 180209Z 1802/1824 18005KT P6SM -RA BKN050 OVC100
     FM180600 19008KT 6SM -SHRA SCT030 OVC050
     FM181200 19006KT P6SM SCT030 OVC050
     FM182100 18004KT P6SM FEW030 SCT050=



000
FTUS46 KPQR 180209 AAB
TAFEUG
TAF AMD
KEUG 180209Z 1802/1824 18005KT P6SM -RA BKN050 OVC100
     FM180600 19008KT 6SM -SHRA SCT030 OVC050
     FM181200 19006KT P6SM SCT030 OVC050
     FM182100 18004KT P6SM FEW030 SCT050=



000
FTUS46 KPQR 180208 AAA
TAFEUG
TAF AMD
KEUG 180208Z 1802/1824 18005KT P6SM -RA BKN050 OVC100
     FM180600 19008KT 6SM -RA SCT030 OVC050
     FM182100 18004KT P6SM FEW030 SCT050=



000
FTUS46 KPQR 180207 AAA
TAFSLE
TAF AMD
KSLE 180207Z 1802/1824 VRB04KT P6SM -RA BKN050 OVC100
     FM180500 17006KT 6SM -RA BKN030 OVC050
     FM180800 17005KT P6SM SCT030 BKN050
     FM182100 18004KT P6SM FEW030 SCT050=



000
FTUS46 KPQR 180207 AAA
TAFSLE
TAF AMD
KSLE 180207Z 1802/1824 VRB04KT P6SM -RA BKN050 OVC100
     FM180500 17006KT 6SM -RA BKN030 OVC050
     FM180800 17005KT P6SM SCT030 BKN050
     FM182100 18004KT P6SM FEW030 SCT050=



000
FTUS46 KPQR 180205 AAA
TAFHIO
TAF AMD
KHIO 180205Z 1802/1824 10005KT 6SM -RA BR BKN035 OVC050
     FM180500 16008KT 6SM -RA BKN030 OVC050
     FM181200 17005KT P6SM SCT030 BKN050
     FM182100 18004KT P6SM FEW030 SCT050=



000
FTUS46 KPQR 180205 AAA
TAFHIO
TAF AMD
KHIO 180205Z 1802/1824 10005KT 6SM -RA BR BKN035 OVC050
     FM180500 16008KT 6SM -RA BKN030 OVC050
     FM181200 17005KT P6SM SCT030 BKN050
     FM182100 18004KT P6SM FEW030 SCT050=



000
FTUS46 KPQR 180204 AAA
TAFTTD
TAF AMD
KTTD 180204Z 1802/1824 09009KT P6SM -RA BKN050 OVC100
     FM180400 11008KT 6SM -RA SCT030 OVC050
     FM180800 11005KT P6SM FEW030 BKN050
     FM182100 18004KT P6SM FEW030 SCT050=



000
FTUS46 KPQR 180204 AAA
TAFTTD
TAF AMD
KTTD 180204Z 1802/1824 09009KT P6SM -RA BKN050 OVC100
     FM180400 11008KT 6SM -RA SCT030 OVC050
     FM180800 11005KT P6SM FEW030 BKN050
     FM182100 18004KT P6SM FEW030 SCT050=



000
FTUS46 KPQR 180203 AAA
TAFPDX
TAF AMD
KPDX 180203Z 1802/1824 10009KT P6SM -RA BKN050 OVC100
     FM180400 14008KT 6SM -RA BKN030 OVC050
     FM180800 11005KT P6SM SCT030 BKN050
     FM182100 18004KT P6SM FEW030 SCT050=



000
FTUS46 KPQR 180203 AAA
TAFPDX
TAF AMD
KPDX 180203Z 1802/1824 10009KT P6SM -RA BKN050 OVC100
     FM180400 14008KT 6SM -RA BKN030 OVC050
     FM180800 11005KT P6SM SCT030 BKN050
     FM182100 18004KT P6SM FEW030 SCT050=



000
FTUS46 KPQR 180159 AAA
TAFONP
TAF AMD
KONP 180159Z 1802/1824 21007KT 2SM BR BKN004 OVC008
     FM180400 21010G25KT 5SM -RA BR SCT008 BKN015 OVC030
      TEMPO 1804/1808 BKN008 OVC015
     FM180800 19010KT 4SM -SHRA BR SCT015 BKN030
     FM181500 18007KT 5SM BR BKN035 BKN050=



000
FTUS46 KPQR 180159 AAA
TAFONP
TAF AMD
KONP 180159Z 1802/1824 21007KT 2SM BR BKN004 OVC008
     FM180400 21010G25KT 5SM -RA BR SCT008 BKN015 OVC030
      TEMPO 1804/1808 BKN008 OVC015
     FM180800 19010KT 4SM -SHRA BR SCT015 BKN030
     FM181500 18007KT 5SM BR BKN035 BKN050=



000
FTUS46 KPQR 172331 CCA
TAFONP
TAF COR
KONP 172331Z 1800/1824 19020G30KT 5SM -RA BR SCT008 BKN015 OVC030
      TEMPO 1800/1804 BKN008 OVC015
     FM181400 18007KT 5SM BR BKN035 BKN050=



000
FTUS46 KPQR 172331 CCA
TAFONP
TAF COR
KONP 172331Z 1800/1824 19020G30KT 5SM -RA BR SCT008 BKN015 OVC030
      TEMPO 1800/1804 BKN008 OVC015
     FM181400 18007KT 5SM BR BKN035 BKN050=



000
FTUS46 KPQR 172331 CCA
TAFONP
TAF COR
KONP 172331Z 1800/1824 19020G30KT 5SM -RA BR SCT008 BKN015 OVC030
      TEMPO 1800/1804 BKN008 OVC015
     FM181400 18007KT 5SM BR BKN035 BKN050=



000
FTUS46 KPQR 172320
TAFONP
TAF
KONP 172320Z 1800/1824 19020G30KT 3SM RA BR SCT008 BKN015 OVC030
     FM180100 21013KT 5SM -RADZ BKN010 OVC020
     FM181400 18007KT 5SM BR BKN035 BKN050=



000
FTUS46 KPQR 172320
TAFEUG
TAF
KEUG 172320Z 1800/1824 18010KT P6SM -RA SCT030 OVC050
     FM180300 18012G20KT 6SM -RA BKN030 OVC040
     FM180700 19010KT P6SM -RA BKN025 OVC040
     FM181200 16005KT 3SM BR BKN050=



000
FTUS46 KPQR 172320
TAFPDX
TAF
KPDX 172320Z 1800/1824 11014KT P6SM -RA BKN050 OVC100
     FM180100 18012G19KT 6SM -RA BKN025 OVC040
     FM180300 20009KT 5SM -RADZ BR BKN025 OVC035
     FM180800 14004KT P6SM OVC040=



000
FTUS46 KPQR 172320
TAFTTD
TAF
KTTD 172320Z 1800/1824 10015G25KT P6SM -RA SCT030 OVC050
     FM180200 19015G20KT 6SM -RA BKN025 OVC040
     FM180500 21010KT P6SM -RA BKN015 OVC030
     FM181700 11004KT P6SM BKN040=



000
FTUS46 KPQR 172320
TAFHIO
TAF
KHIO 172320Z 1800/1824 18008KT P6SM -RA SCT030 OVC050
     FM180200 18011KT 6SM -RA BKN025 OVC040
     FM180700 20008KT 5SM -RADZ BR BKN015 OVC030
     FM181400 VRB02KT 4SM BR OVC050=



000
FTUS46 KPQR 172320
TAFSLE
TAF
KSLE 172320Z 1800/1824 18013G23KT 6SM -RA BKN025 OVC040
     FM180700 20010KT P6SM -RA BKN025 OVC040=



000
FTUS46 KPQR 172320
TAFAST
TAF
KAST 172320Z 1800/1824 20012KT P6SM -RADZ BKN015 OVC025
     FM181700 19005KT P6SM BKN040=



000
FTUS46 KPQR 172320
TAFEUG
TAF
KEUG 172320Z 1800/1824 18010KT P6SM -RA SCT030 OVC050
     FM180300 18012G20KT 6SM -RA BKN030 OVC040
     FM180700 19010KT P6SM -RA BKN025 OVC040
     FM181200 16005KT 3SM BR BKN050=



000
FTUS46 KPQR 172320
TAFTTD
TAF
KTTD 172320Z 1800/1824 10015G25KT P6SM -RA SCT030 OVC050
     FM180200 19015G20KT 6SM -RA BKN025 OVC040
     FM180500 21010KT P6SM -RA BKN015 OVC030
     FM181700 11004KT P6SM BKN040=



000
FTUS46 KPQR 172320
TAFPDX
TAF
KPDX 172320Z 1800/1824 11014KT P6SM -RA BKN050 OVC100
     FM180100 18012G19KT 6SM -RA BKN025 OVC040
     FM180300 20009KT 5SM -RADZ BR BKN025 OVC035
     FM180800 14004KT P6SM OVC040=



000
FTUS46 KPQR 172320
TAFHIO
TAF
KHIO 172320Z 1800/1824 18008KT P6SM -RA SCT030 OVC050
     FM180200 18011KT 6SM -RA BKN025 OVC040
     FM180700 20008KT 5SM -RADZ BR BKN015 OVC030
     FM181400 VRB02KT 4SM BR OVC050=



000
FTUS46 KPQR 172320
TAFONP
TAF
KONP 172320Z 1800/1824 19020G30KT 3SM RA BR SCT008 BKN015 OVC030
     FM180100 21013KT 5SM -RADZ BKN010 OVC020
     FM181400 18007KT 5SM BR BKN035 BKN050=



000
FTUS46 KPQR 172320
TAFPDX
TAF
KPDX 172320Z 1800/1824 11014KT P6SM -RA BKN050 OVC100
     FM180100 18012G19KT 6SM -RA BKN025 OVC040
     FM180300 20009KT 5SM -RADZ BR BKN025 OVC035
     FM180800 14004KT P6SM OVC040=



000
FTUS46 KPQR 172320
TAFSLE
TAF
KSLE 172320Z 1800/1824 18013G23KT 6SM -RA BKN025 OVC040
     FM180700 20010KT P6SM -RA BKN025 OVC040=



000
FTUS46 KPQR 172320
TAFAST
TAF
KAST 172320Z 1800/1824 20012KT P6SM -RADZ BKN015 OVC025
     FM181700 19005KT P6SM BKN040=



000
FTUS46 KPQR 172320
TAFSLE
TAF
KSLE 172320Z 1800/1824 18013G23KT 6SM -RA BKN025 OVC040
     FM180700 20010KT P6SM -RA BKN025 OVC040=



000
FTUS46 KPQR 172320
TAFAST
TAF
KAST 172320Z 1800/1824 20012KT P6SM -RADZ BKN015 OVC025
     FM181700 19005KT P6SM BKN040=



000
FTUS46 KPQR 172320
TAFONP
TAF
KONP 172320Z 1800/1824 19020G30KT 3SM RA BR SCT008 BKN015 OVC030
     FM180100 21013KT 5SM -RADZ BKN010 OVC020
     FM181400 18007KT 5SM BR BKN035 BKN050=



000
FTUS46 KPQR 172320
TAFTTD
TAF
KTTD 172320Z 1800/1824 10015G25KT P6SM -RA SCT030 OVC050
     FM180200 19015G20KT 6SM -RA BKN025 OVC040
     FM180500 21010KT P6SM -RA BKN015 OVC030
     FM181700 11004KT P6SM BKN040=



000
FTUS46 KPQR 172320
TAFHIO
TAF
KHIO 172320Z 1800/1824 18008KT P6SM -RA SCT030 OVC050
     FM180200 18011KT 6SM -RA BKN025 OVC040
     FM180700 20008KT 5SM -RADZ BR BKN015 OVC030
     FM181400 VRB02KT 4SM BR OVC050=



000
FTUS46 KPQR 172320
TAFEUG
TAF
KEUG 172320Z 1800/1824 18010KT P6SM -RA SCT030 OVC050
     FM180300 18012G20KT 6SM -RA BKN030 OVC040
     FM180700 19010KT P6SM -RA BKN025 OVC040
     FM181200 16005KT 3SM BR BKN050=



000
FTUS46 KPQR 172320
TAFPDX
TAF
KPDX 172320Z 1800/1824 11014KT P6SM -RA BKN050 OVC100
     FM180100 18012G19KT 6SM -RA BKN025 OVC040
     FM180300 20009KT 5SM -RADZ BR BKN025 OVC035
     FM180800 14004KT P6SM OVC040=



000
FTUS46 KPQR 172320
TAFEUG
TAF
KEUG 172320Z 1800/1824 18010KT P6SM -RA SCT030 OVC050
     FM180300 18012G20KT 6SM -RA BKN030 OVC040
     FM180700 19010KT P6SM -RA BKN025 OVC040
     FM181200 16005KT 3SM BR BKN050=



000
FTUS46 KPQR 172320
TAFSLE
TAF
KSLE 172320Z 1800/1824 18013G23KT 6SM -RA BKN025 OVC040
     FM180700 20010KT P6SM -RA BKN025 OVC040=



000
FTUS46 KPQR 172320
TAFAST
TAF
KAST 172320Z 1800/1824 20012KT P6SM -RADZ BKN015 OVC025
     FM181700 19005KT P6SM BKN040=



000
FTUS46 KPQR 172320
TAFONP
TAF
KONP 172320Z 1800/1824 19020G30KT 3SM RA BR SCT008 BKN015 OVC030
     FM180100 21013KT 5SM -RADZ BKN010 OVC020
     FM181400 18007KT 5SM BR BKN035 BKN050=



000
FTUS46 KPQR 172320
TAFHIO
TAF
KHIO 172320Z 1800/1824 18008KT P6SM -RA SCT030 OVC050
     FM180200 18011KT 6SM -RA BKN025 OVC040
     FM180700 20008KT 5SM -RADZ BR BKN015 OVC030
     FM181400 VRB02KT 4SM BR OVC050=



000
FTUS46 KPQR 172320
TAFTTD
TAF
KTTD 172320Z 1800/1824 10015G25KT P6SM -RA SCT030 OVC050
     FM180200 19015G20KT 6SM -RA BKN025 OVC040
     FM180500 21010KT P6SM -RA BKN015 OVC030
     FM181700 11004KT P6SM BKN040=



000
FTUS46 KPQR 172144 AAA
TAFTTD
TAF AMD
KTTD 172144Z 1722/1818 10015G25KT P6SM -RA SCT030 OVC050
     FM180200 19015G20KT 6SM -RA BKN025 OVC040
     FM180500 21010KT P6SM -RA BKN015 OVC030
     FM181700 11004KT P6SM BKN040=



000
FTUS46 KPQR 172144 AAA
TAFTTD
TAF AMD
KTTD 172144Z 1722/1818 10015G25KT P6SM -RA SCT030 OVC050
     FM180200 19015G20KT 6SM -RA BKN025 OVC040
     FM180500 21010KT P6SM -RA BKN015 OVC030
     FM181700 11004KT P6SM BKN040=



000
FTUS46 KPQR 172144 AAA
TAFTTD
TAF AMD
KTTD 172144Z 1722/1818 10015G25KT P6SM -RA SCT030 OVC050
     FM180200 19015G20KT 6SM -RA BKN025 OVC040
     FM180500 21010KT P6SM -RA BKN015 OVC030
     FM181700 11004KT P6SM BKN040=



000
FTUS46 KPQR 172053 AAB
TAFPDX
TAF AMD
KPDX 172053Z 1721/1818 11014KT P6SM -RA BKN050 OVC100
     FM180100 18012G19KT 6SM -RA BKN025 OVC040
     FM180300 20009KT 5SM -RADZ BR BKN025 OVC035
     FM180800 14004KT P6SM OVC040=



000
FTUS46 KPQR 172053 AAB
TAFPDX
TAF AMD
KPDX 172053Z 1721/1818 11014KT P6SM -RA BKN050 OVC100
     FM180100 18012G19KT 6SM -RA BKN025 OVC040
     FM180300 20009KT 5SM -RADZ BR BKN025 OVC035
     FM180800 14004KT P6SM OVC040=



000
FTUS46 KPQR 172044 AAA
TAFAST
TAF AMD
KAST 172044Z 1721/1818 17012G18KT 3SM -RA BKN025 OVC035
     FM172300 19015G25KT 3SM RA BR SCT008 BKN015 OVC030
     FM180000 20012KT P6SM -RADZ BKN015 OVC025
     FM181700 19005KT P6SM BKN040=



000
FTUS46 KPQR 172044 AAA
TAFAST
TAF AMD
KAST 172044Z 1721/1818 17012G18KT 3SM -RA BKN025 OVC035
     FM172300 19015G25KT 3SM RA BR SCT008 BKN015 OVC030
     FM180000 20012KT P6SM -RADZ BKN015 OVC025
     FM181700 19005KT P6SM BKN040=



000
FTUS46 KPQR 172044 AAA
TAFAST
TAF AMD
KAST 172044Z 1721/1818 17012G18KT 3SM -RA BKN025 OVC035
     FM172300 19015G25KT 3SM RA BR SCT008 BKN015 OVC030
     FM180000 20012KT P6SM -RADZ BKN015 OVC025
     FM181700 19005KT P6SM BKN040=



000
FTUS46 KPQR 172044 AAA
TAFAST
TAF AMD
KAST 172044Z 1721/1818 17012G18KT 3SM -RA BKN025 OVC035
     FM172300 19015G25KT 3SM RA BR SCT008 BKN015 OVC030
     FM180000 20012KT P6SM -RADZ BKN015 OVC025
     FM181700 19005KT P6SM BKN040=



000
FTUS46 KPQR 172042 AAA
TAFONP
TAF AMD
KONP 172042Z 1721/1818 16012G19KT 4SM -RA OVC023
     FM172200 19020G30KT 3SM RA BR SCT008 BKN015 OVC030
     FM180100 21013KT 5SM -RADZ BKN010 OVC020
     FM181400 18007KT 5SM BR BKN035 BKN050=



000
FTUS46 KPQR 172042 AAA
TAFONP
TAF AMD
KONP 172042Z 1721/1818 16012G19KT 4SM -RA OVC023
     FM172200 19020G30KT 3SM RA BR SCT008 BKN015 OVC030
     FM180100 21013KT 5SM -RADZ BKN010 OVC020
     FM181400 18007KT 5SM BR BKN035 BKN050=



000
FTUS46 KPQR 172042 AAA
TAFONP
TAF AMD
KONP 172042Z 1721/1818 16012G19KT 4SM -RA OVC023
     FM172200 19020G30KT 3SM RA BR SCT008 BKN015 OVC030
     FM180100 21013KT 5SM -RADZ BKN010 OVC020
     FM181400 18007KT 5SM BR BKN035 BKN050=



000
FTUS46 KPQR 172042 AAA
TAFONP
TAF AMD
KONP 172042Z 1721/1818 16012G19KT 4SM -RA OVC023
     FM172200 19020G30KT 3SM RA BR SCT008 BKN015 OVC030
     FM180100 21013KT 5SM -RADZ BKN010 OVC020
     FM181400 18007KT 5SM BR BKN035 BKN050=



000
FTUS46 KPQR 171821 AAA
TAFPDX
TAF AMD
KPDX 171821Z 1718/1818 11014KT P6SM BKN060 OVC100
      TEMPO 1718/1722 -RA
     FM172200 13011KT P6SM -RA SCT030 OVC050
     FM180200 18012G20KT 6SM -RA BKN025 OVC040
     FM180400 20009KT 5SM -RADZ BR BKN025 OVC035
     FM180800 14004KT P6SM OVC040=



000
FTUS46 KPQR 171821 AAA
TAFPDX
TAF AMD
KPDX 171821Z 1718/1818 11014KT P6SM BKN060 OVC100
      TEMPO 1718/1722 -RA
     FM172200 13011KT P6SM -RA SCT030 OVC050
     FM180200 18012G20KT 6SM -RA BKN025 OVC040
     FM180400 20009KT 5SM -RADZ BR BKN025 OVC035
     FM180800 14004KT P6SM OVC040=



000
FTUS46 KPQR 171739
TAFPDX
TAF
KPDX 171739Z 1718/1818 13011KT P6SM BKN060 OVC100
      TEMPO 1718/1722 -RA
     FM172200 13009KT P6SM -RA SCT030 OVC050
     FM180200 18012G20KT 6SM -RA BKN025 OVC040
     FM180400 20009KT 5SM -RADZ BR BKN025 OVC035
     FM180800 14004KT P6SM OVC040=



000
FTUS46 KPQR 171739
TAFTTD
TAF
KTTD 171739Z 1718/1818 09013G22KT P6SM -RA FEW060 OVC090
     FM171800 09013G22KT P6SM SCT045 BKN060 OVC100
      TEMPO 1718/1722 -RA
     FM172200 10011KT P6SM -RA SCT030 OVC050
     FM180200 19011KT 6SM -RA BKN025 OVC040
     FM180700 21008KT 5SM -RADZ BR BKN015 OVC030=



000
FTUS46 KPQR 171739
TAFAST
TAF
KAST 171739Z 1718/1818 13011KT P6SM -RA SCT025 OVC050
     FM172100 17015G23KT 6SM -RA BKN020 OVC035
     FM172300 19015G28KT 4SM RA BR SCT008 BKN015 OVC030
     FM180100 20012KT P6SM -RADZ BKN015 OVC025
     FM181700 19005KT P6SM BKN040=



000
FTUS46 KPQR 171739
TAFEUG
TAF
KEUG 171739Z 1718/1818 18007KT P6SM BKN070 OVC100
      TEMPO 1719/1723 -RA
     FM172300 18010KT P6SM -RA SCT030 OVC050
     FM180300 18012G20KT 6SM -RA BKN030 OVC040
     FM180700 19010KT P6SM -RA BKN025 OVC040
     FM181200 16005KT 3SM BR BKN050=



000
FTUS46 KPQR 171739
TAFAST
TAF
KAST 171739Z 1718/1818 13011KT P6SM -RA SCT025 OVC050
     FM172100 17015G23KT 6SM -RA BKN020 OVC035
     FM172300 19015G28KT 4SM RA BR SCT008 BKN015 OVC030
     FM180100 20012KT P6SM -RADZ BKN015 OVC025
     FM181700 19005KT P6SM BKN040=



000
FTUS46 KPQR 171739
TAFHIO
TAF
KHIO 171739Z 1718/1818 16006KT P6SM BKN060 OVC100
      TEMPO 1718/1722 -RA
     FM172200 18008KT P6SM -RA SCT030 OVC050
     FM180200 18011KT 6SM -RA BKN025 OVC040
     FM180700 20008KT 5SM -RADZ BR BKN015 OVC030
     FM181400 VRB02KT 4SM BR OVC050=



000
FTUS46 KPQR 171739
TAFSLE
TAF
KSLE 171739Z 1718/1818 16004KT P6SM BKN060 OVC100
      TEMPO 1718/1721 -RA
     FM172100 18010KT P6SM -RA SCT030 OVC050
     FM180000 18013G23KT 6SM -RA BKN025 OVC040
     FM180700 20010KT P6SM -RA BKN025 OVC040=



000
FTUS46 KPQR 171739
TAFONP
TAF
KONP 171739Z 1718/1818 14012KT P6SM -RA SCT025 OVC050
     FM172000 18016G25KT 6SM -RA BKN020 OVC035
     FM172300 19020G30KT 3SM RA BR SCT008 BKN015 OVC030
     FM180100 21013KT 5SM -RADZ BKN010 OVC020
     FM181400 18007KT 5SM BR BKN035 BKN050=



000
FTUS46 KPQR 171739
TAFONP
TAF
KONP 171739Z 1718/1818 14012KT P6SM -RA SCT025 OVC050
     FM172000 18016G25KT 6SM -RA BKN020 OVC035
     FM172300 19020G30KT 3SM RA BR SCT008 BKN015 OVC030
     FM180100 21013KT 5SM -RADZ BKN010 OVC020
     FM181400 18007KT 5SM BR BKN035 BKN050=



000
FTUS46 KPQR 171739
TAFPDX
TAF
KPDX 171739Z 1718/1818 13011KT P6SM BKN060 OVC100
      TEMPO 1718/1722 -RA
     FM172200 13009KT P6SM -RA SCT030 OVC050
     FM180200 18012G20KT 6SM -RA BKN025 OVC040
     FM180400 20009KT 5SM -RADZ BR BKN025 OVC035
     FM180800 14004KT P6SM OVC040=



000
FTUS46 KPQR 171739
TAFEUG
TAF
KEUG 171739Z 1718/1818 18007KT P6SM BKN070 OVC100
      TEMPO 1719/1723 -RA
     FM172300 18010KT P6SM -RA SCT030 OVC050
     FM180300 18012G20KT 6SM -RA BKN030 OVC040
     FM180700 19010KT P6SM -RA BKN025 OVC040
     FM181200 16005KT 3SM BR BKN050=



000
FTUS46 KPQR 171739
TAFSLE
TAF
KSLE 171739Z 1718/1818 16004KT P6SM BKN060 OVC100
      TEMPO 1718/1721 -RA
     FM172100 18010KT P6SM -RA SCT030 OVC050
     FM180000 18013G23KT 6SM -RA BKN025 OVC040
     FM180700 20010KT P6SM -RA BKN025 OVC040=



000
FTUS46 KPQR 171739
TAFHIO
TAF
KHIO 171739Z 1718/1818 16006KT P6SM BKN060 OVC100
      TEMPO 1718/1722 -RA
     FM172200 18008KT P6SM -RA SCT030 OVC050
     FM180200 18011KT 6SM -RA BKN025 OVC040
     FM180700 20008KT 5SM -RADZ BR BKN015 OVC030
     FM181400 VRB02KT 4SM BR OVC050=



000
FTUS46 KPQR 171739
TAFTTD
TAF
KTTD 171739Z 1718/1818 09013G22KT P6SM -RA FEW060 OVC090
     FM171800 09013G22KT P6SM SCT045 BKN060 OVC100
      TEMPO 1718/1722 -RA
     FM172200 10011KT P6SM -RA SCT030 OVC050
     FM180200 19011KT 6SM -RA BKN025 OVC040
     FM180700 21008KT 5SM -RADZ BR BKN015 OVC030=



000
FTUS46 KPQR 171607 AAA
TAFONP
TAF AMD
KONP 171607Z 1716/1812 14012KT P6SM -RA SCT025 OVC050
     FM172000 18016G25KT 6SM -RA BKN020 OVC035
     FM172300 19020G30KT 3SM RA BR SCT008 BKN015 OVC030
     FM180500 21013KT 5SM -RADZ BKN010 OVC020=



000
FTUS46 KPQR 171607 AAA
TAFONP
TAF AMD
KONP 171607Z 1716/1812 14012KT P6SM -RA SCT025 OVC050
     FM172000 18016G25KT 6SM -RA BKN020 OVC035
     FM172300 19020G30KT 3SM RA BR SCT008 BKN015 OVC030
     FM180500 21013KT 5SM -RADZ BKN010 OVC020=



000
FTUS46 KPQR 171607 AAA
TAFONP
TAF AMD
KONP 171607Z 1716/1812 14012KT P6SM -RA SCT025 OVC050
     FM172000 18016G25KT 6SM -RA BKN020 OVC035
     FM172300 19020G30KT 3SM RA BR SCT008 BKN015 OVC030
     FM180500 21013KT 5SM -RADZ BKN010 OVC020=



000
FTUS46 KPQR 171607 AAA
TAFONP
TAF AMD
KONP 171607Z 1716/1812 14012KT P6SM -RA SCT025 OVC050
     FM172000 18016G25KT 6SM -RA BKN020 OVC035
     FM172300 19020G30KT 3SM RA BR SCT008 BKN015 OVC030
     FM180500 21013KT 5SM -RADZ BKN010 OVC020=



000
FTUS46 KPQR 171450 AAA
TAFPDX
TAF AMD
KPDX 171450Z 1715/1812 11013KT P6SM SCT045 BKN060 OVC100
      TEMPO 1718/1722 -RA
     FM172200 13009KT P6SM -RA SCT030 OVC050
     FM180200 18012G20KT 6SM -RA BKN025 OVC040
     FM180700 20009KT 5SM -RADZ BR BKN019 OVC030=



000
FTUS46 KPQR 171450 AAA
TAFPDX
TAF AMD
KPDX 171450Z 1715/1812 11013KT P6SM SCT045 BKN060 OVC100
      TEMPO 1718/1722 -RA
     FM172200 13009KT P6SM -RA SCT030 OVC050
     FM180200 18012G20KT 6SM -RA BKN025 OVC040
     FM180700 20009KT 5SM -RADZ BR BKN019 OVC030=



    US Dept of Commerce
    National Oceanic and Atmospheric Administration
    National Weather Service
    1325 East West Highway
    Silver Spring, MD 20910
    Page Author: NWS Internet Services Team
Disclaimer
Information Quality
Credits
Glossary
Privacy Policy
Freedom of Information Act (FOIA)
About Us
Career Opportunities